<?xml version="1.0" encoding="UTF-8" standalone="no" ?>
<gpx xmlns="http://www.topografix.com/GPX/1/1" xmlns:xsi="http://www.w3.org/2001/XMLSchema-instance" xsi:schemaLocation="http://www.topografix.com/GPX/1/1 http://www.topografix.com/GPX/1/1/gpx.xsd" version="1.1" creator="VisuGPX - https://www.visugpx.com">
  <metadata>
    <name>CDS j9</name>
    <desc><![CDATA[Chemin du soleil]]></desc>
  </metadata>
  <trk>
    <name><![CDATA[ACTIVE LOG131311]]></name>
    <trkseg>
      <trkpt lat="44.16679" lon="6.08473">
        <ele>1416</ele>
        <time>2011-08-17T11:13:10Z</time>
      </trkpt>
      <trkpt lat="44.1667" lon="6.0844">
        <ele>1415</ele>
        <time>2011-08-17T11:13:26Z</time>
      </trkpt>
      <trkpt lat="44.16668" lon="6.08426">
        <ele>1415</ele>
        <time>2011-08-17T11:13:31Z</time>
      </trkpt>
      <trkpt lat="44.16663" lon="6.08379">
        <ele>1402</ele>
        <time>2011-08-17T11:13:44Z</time>
      </trkpt>
      <trkpt lat="44.16652" lon="6.08323">
        <ele>1393</ele>
        <time>2011-08-17T11:13:54Z</time>
      </trkpt>
      <trkpt lat="44.16613" lon="6.08233">
        <ele>1384</ele>
        <time>2011-08-17T11:14:03Z</time>
      </trkpt>
      <trkpt lat="44.16595" lon="6.08211">
        <ele>1385</ele>
        <time>2011-08-17T11:14:11Z</time>
      </trkpt>
      <trkpt lat="44.16572" lon="6.08187">
        <ele>1386</ele>
        <time>2011-08-17T11:14:26Z</time>
      </trkpt>
      <trkpt lat="44.16542" lon="6.08164">
        <ele>1381</ele>
        <time>2011-08-17T11:14:40Z</time>
      </trkpt>
      <trkpt lat="44.16508" lon="6.08151">
        <ele>1380</ele>
        <time>2011-08-17T11:14:54Z</time>
      </trkpt>
      <trkpt lat="44.16478" lon="6.08142">
        <ele>1369</ele>
        <time>2011-08-17T11:15:07Z</time>
      </trkpt>
      <trkpt lat="44.16448" lon="6.0811">
        <ele>1363</ele>
        <time>2011-08-17T11:15:20Z</time>
      </trkpt>
      <trkpt lat="44.16435" lon="6.08104">
        <ele>1360</ele>
        <time>2011-08-17T11:15:24Z</time>
      </trkpt>
      <trkpt lat="44.16428" lon="6.08105">
        <ele>1359</ele>
        <time>2011-08-17T11:15:26Z</time>
      </trkpt>
      <trkpt lat="44.16395" lon="6.08086">
        <ele>1345</ele>
        <time>2011-08-17T11:15:35Z</time>
      </trkpt>
      <trkpt lat="44.16321" lon="6.08074">
        <ele>1326</ele>
        <time>2011-08-17T11:15:48Z</time>
      </trkpt>
      <trkpt lat="44.16217" lon="6.08087">
        <ele>1315</ele>
        <time>2011-08-17T11:16:03Z</time>
      </trkpt>
      <trkpt lat="44.16176" lon="6.08091">
        <ele>1314</ele>
        <time>2011-08-17T11:16:16Z</time>
      </trkpt>
      <trkpt lat="44.16136" lon="6.08095">
        <ele>1316</ele>
        <time>2011-08-17T11:16:33Z</time>
      </trkpt>
      <trkpt lat="44.16136" lon="6.08094">
        <ele>1316</ele>
        <time>2011-08-17T11:17:30Z</time>
      </trkpt>
      <trkpt lat="44.16136" lon="6.08094">
        <ele>1316</ele>
        <time>2011-08-17T11:18:12Z</time>
      </trkpt>
      <trkpt lat="44.16137" lon="6.08094">
        <ele>1316</ele>
        <time>2011-08-17T11:18:47Z</time>
      </trkpt>
      <trkpt lat="44.16124" lon="6.08093">
        <ele>1316</ele>
        <time>2011-08-17T11:19:04Z</time>
      </trkpt>
      <trkpt lat="44.16112" lon="6.08093">
        <ele>1317</ele>
        <time>2011-08-17T11:19:19Z</time>
      </trkpt>
      <trkpt lat="44.1609" lon="6.08096">
        <ele>1318</ele>
        <time>2011-08-17T11:19:42Z</time>
      </trkpt>
      <trkpt lat="44.1607" lon="6.08095">
        <ele>1321</ele>
        <time>2011-08-17T11:20:00Z</time>
      </trkpt>
      <trkpt lat="44.16054" lon="6.08096">
        <ele>1322</ele>
        <time>2011-08-17T11:20:19Z</time>
      </trkpt>
      <trkpt lat="44.1604" lon="6.08095">
        <ele>1323</ele>
        <time>2011-08-17T11:20:35Z</time>
      </trkpt>
      <trkpt lat="44.16041" lon="6.08095">
        <ele>1323</ele>
        <time>2011-08-17T11:20:37Z</time>
      </trkpt>
      <trkpt lat="44.16049" lon="6.08095">
        <ele>1322</ele>
        <time>2011-08-17T11:20:52Z</time>
      </trkpt>
      <trkpt lat="44.16048" lon="6.08094">
        <ele>1323</ele>
        <time>2011-08-17T11:21:40Z</time>
      </trkpt>
      <trkpt lat="44.16048" lon="6.08092">
        <ele>1323</ele>
        <time>2011-08-17T11:29:16Z</time>
      </trkpt>
      <trkpt lat="44.16048" lon="6.08092">
        <ele>1323</ele>
        <time>2011-08-17T11:32:04Z</time>
      </trkpt>
      <trkpt lat="44.16049" lon="6.08092">
        <ele>1322</ele>
        <time>2011-08-17T11:33:34Z</time>
      </trkpt>
      <trkpt lat="44.16047" lon="6.08094">
        <ele>1323</ele>
        <time>2011-08-17T11:37:48Z</time>
      </trkpt>
      <trkpt lat="44.16047" lon="6.08094">
        <ele>1323</ele>
        <time>2011-08-17T11:41:03Z</time>
      </trkpt>
      <trkpt lat="44.16047" lon="6.08094">
        <ele>1323</ele>
        <time>2011-08-17T11:41:55Z</time>
      </trkpt>
      <trkpt lat="44.16045" lon="6.08096">
        <ele>1323</ele>
        <time>2011-08-17T11:44:33Z</time>
      </trkpt>
      <trkpt lat="44.16045" lon="6.08096">
        <ele>1323</ele>
        <time>2011-08-17T11:47:06Z</time>
      </trkpt>
      <trkpt lat="44.16032" lon="6.08093">
        <ele>1324</ele>
        <time>2011-08-17T11:47:22Z</time>
      </trkpt>
      <trkpt lat="44.16009" lon="6.08089">
        <ele>1327</ele>
        <time>2011-08-17T11:47:42Z</time>
      </trkpt>
      <trkpt lat="44.16008" lon="6.0809">
        <ele>1327</ele>
        <time>2011-08-17T11:48:01Z</time>
      </trkpt>
      <trkpt lat="44.1598" lon="6.08083">
        <ele>1324</ele>
        <time>2011-08-17T11:48:16Z</time>
      </trkpt>
      <trkpt lat="44.15946" lon="6.08048">
        <ele>1320</ele>
        <time>2011-08-17T11:48:28Z</time>
      </trkpt>
      <trkpt lat="44.15937" lon="6.08034">
        <ele>1319</ele>
        <time>2011-08-17T11:48:30Z</time>
      </trkpt>
      <trkpt lat="44.1592" lon="6.0802">
        <ele>1319</ele>
        <time>2011-08-17T11:48:34Z</time>
      </trkpt>
      <trkpt lat="44.15906" lon="6.08006">
        <ele>1317</ele>
        <time>2011-08-17T11:48:41Z</time>
      </trkpt>
      <trkpt lat="44.15895" lon="6.08">
        <ele>1312</ele>
        <time>2011-08-17T11:48:55Z</time>
      </trkpt>
      <trkpt lat="44.15896" lon="6.08">
        <ele>1317</ele>
        <time>2011-08-17T11:49:08Z</time>
      </trkpt>
      <trkpt lat="44.15911" lon="6.0801">
        <ele>1317</ele>
        <time>2011-08-17T11:49:25Z</time>
      </trkpt>
      <trkpt lat="44.15911" lon="6.08018">
        <ele>1317</ele>
        <time>2011-08-17T11:49:36Z</time>
      </trkpt>
      <trkpt lat="44.15912" lon="6.08027">
        <ele>1317</ele>
        <time>2011-08-17T11:49:42Z</time>
      </trkpt>
      <trkpt lat="44.15911" lon="6.0805">
        <ele>1318</ele>
        <time>2011-08-17T11:49:46Z</time>
      </trkpt>
      <trkpt lat="44.15891" lon="6.08142">
        <ele>1311</ele>
        <time>2011-08-17T11:50:00Z</time>
      </trkpt>
      <trkpt lat="44.15865" lon="6.08175">
        <ele>1297</ele>
        <time>2011-08-17T11:50:10Z</time>
      </trkpt>
      <trkpt lat="44.15861" lon="6.08179">
        <ele>1296</ele>
        <time>2011-08-17T11:50:11Z</time>
      </trkpt>
      <trkpt lat="44.15831" lon="6.08199">
        <ele>1284</ele>
        <time>2011-08-17T11:50:21Z</time>
      </trkpt>
      <trkpt lat="44.15829" lon="6.08196">
        <ele>1285</ele>
        <time>2011-08-17T11:50:23Z</time>
      </trkpt>
      <trkpt lat="44.1583" lon="6.08188">
        <ele>1286</ele>
        <time>2011-08-17T11:50:34Z</time>
      </trkpt>
      <trkpt lat="44.15833" lon="6.08181">
        <ele>1296</ele>
        <time>2011-08-17T11:50:57Z</time>
      </trkpt>
      <trkpt lat="44.15834" lon="6.0818">
        <ele>1296</ele>
        <time>2011-08-17T11:50:58Z</time>
      </trkpt>
      <trkpt lat="44.15842" lon="6.08156">
        <ele>1302</ele>
        <time>2011-08-17T11:51:19Z</time>
      </trkpt>
      <trkpt lat="44.15842" lon="6.08157">
        <ele>1302</ele>
        <time>2011-08-17T11:52:22Z</time>
      </trkpt>
      <trkpt lat="44.15844" lon="6.08152">
        <ele>1303</ele>
        <time>2011-08-17T11:53:48Z</time>
      </trkpt>
      <trkpt lat="44.15849" lon="6.08129">
        <ele>1307</ele>
        <time>2011-08-17T11:54:05Z</time>
      </trkpt>
      <trkpt lat="44.15854" lon="6.0811">
        <ele>1308</ele>
        <time>2011-08-17T11:54:24Z</time>
      </trkpt>
      <trkpt lat="44.15858" lon="6.08103">
        <ele>1308</ele>
        <time>2011-08-17T11:54:30Z</time>
      </trkpt>
      <trkpt lat="44.15857" lon="6.08099">
        <ele>1308</ele>
        <time>2011-08-17T11:54:37Z</time>
      </trkpt>
      <trkpt lat="44.15844" lon="6.08075">
        <ele>1308</ele>
        <time>2011-08-17T11:54:46Z</time>
      </trkpt>
      <trkpt lat="44.15812" lon="6.08051">
        <ele>1299</ele>
        <time>2011-08-17T11:54:55Z</time>
      </trkpt>
      <trkpt lat="44.15774" lon="6.08026">
        <ele>1298</ele>
        <time>2011-08-17T11:55:03Z</time>
      </trkpt>
      <trkpt lat="44.1576" lon="6.08019">
        <ele>1298</ele>
        <time>2011-08-17T11:55:06Z</time>
      </trkpt>
      <trkpt lat="44.15744" lon="6.08014">
        <ele>1288</ele>
        <time>2011-08-17T11:55:09Z</time>
      </trkpt>
      <trkpt lat="44.15708" lon="6.07987">
        <ele>1293</ele>
        <time>2011-08-17T11:55:17Z</time>
      </trkpt>
      <trkpt lat="44.15678" lon="6.07948">
        <ele>1293</ele>
        <time>2011-08-17T11:55:28Z</time>
      </trkpt>
      <trkpt lat="44.15664" lon="6.0793">
        <ele>1283</ele>
        <time>2011-08-17T11:55:34Z</time>
      </trkpt>
      <trkpt lat="44.15648" lon="6.07921">
        <ele>1280</ele>
        <time>2011-08-17T11:55:39Z</time>
      </trkpt>
      <trkpt lat="44.15635" lon="6.07917">
        <ele>1288</ele>
        <time>2011-08-17T11:55:42Z</time>
      </trkpt>
      <trkpt lat="44.15603" lon="6.07893">
        <ele>1284</ele>
        <time>2011-08-17T11:55:49Z</time>
      </trkpt>
      <trkpt lat="44.15586" lon="6.07885">
        <ele>1283</ele>
        <time>2011-08-17T11:55:53Z</time>
      </trkpt>
      <trkpt lat="44.15542" lon="6.07855">
        <ele>1272</ele>
        <time>2011-08-17T11:56:02Z</time>
      </trkpt>
      <trkpt lat="44.15487" lon="6.07831">
        <ele>1269</ele>
        <time>2011-08-17T11:56:13Z</time>
      </trkpt>
      <trkpt lat="44.15474" lon="6.0783">
        <ele>1266</ele>
        <time>2011-08-17T11:56:16Z</time>
      </trkpt>
      <trkpt lat="44.15436" lon="6.07819">
        <ele>1258</ele>
        <time>2011-08-17T11:56:25Z</time>
      </trkpt>
      <trkpt lat="44.15417" lon="6.0778">
        <ele>1258</ele>
        <time>2011-08-17T11:56:35Z</time>
      </trkpt>
      <trkpt lat="44.15416" lon="6.07744">
        <ele>1248</ele>
        <time>2011-08-17T11:56:46Z</time>
      </trkpt>
      <trkpt lat="44.1542" lon="6.07736">
        <ele>1259</ele>
        <time>2011-08-17T11:56:51Z</time>
      </trkpt>
      <trkpt lat="44.15419" lon="6.07689">
        <ele>1262</ele>
        <time>2011-08-17T11:57:04Z</time>
      </trkpt>
      <trkpt lat="44.15425" lon="6.0765">
        <ele>1264</ele>
        <time>2011-08-17T11:57:20Z</time>
      </trkpt>
      <trkpt lat="44.15416" lon="6.07615">
        <ele>1256</ele>
        <time>2011-08-17T11:57:35Z</time>
      </trkpt>
      <trkpt lat="44.15384" lon="6.07585">
        <ele>1255</ele>
        <time>2011-08-17T11:57:47Z</time>
      </trkpt>
      <trkpt lat="44.15333" lon="6.07567">
        <ele>1257</ele>
        <time>2011-08-17T11:58:04Z</time>
      </trkpt>
      <trkpt lat="44.15272" lon="6.07554">
        <ele>1260</ele>
        <time>2011-08-17T11:58:20Z</time>
      </trkpt>
      <trkpt lat="44.15231" lon="6.07542">
        <ele>1252</ele>
        <time>2011-08-17T11:58:32Z</time>
      </trkpt>
      <trkpt lat="44.15191" lon="6.07508">
        <ele>1249</ele>
        <time>2011-08-17T11:58:46Z</time>
      </trkpt>
      <trkpt lat="44.15191" lon="6.07425">
        <ele>1254</ele>
        <time>2011-08-17T11:58:59Z</time>
      </trkpt>
      <trkpt lat="44.15193" lon="6.07369">
        <ele>1255</ele>
        <time>2011-08-17T11:59:09Z</time>
      </trkpt>
      <trkpt lat="44.15193" lon="6.07354">
        <ele>1255</ele>
        <time>2011-08-17T11:59:11Z</time>
      </trkpt>
      <trkpt lat="44.15182" lon="6.07262">
        <ele>1254</ele>
        <time>2011-08-17T11:59:24Z</time>
      </trkpt>
      <trkpt lat="44.15174" lon="6.07242">
        <ele>1255</ele>
        <time>2011-08-17T11:59:28Z</time>
      </trkpt>
      <trkpt lat="44.15167" lon="6.07229">
        <ele>1257</ele>
        <time>2011-08-17T11:59:31Z</time>
      </trkpt>
      <trkpt lat="44.15144" lon="6.0722">
        <ele>1252</ele>
        <time>2011-08-17T11:59:37Z</time>
      </trkpt>
      <trkpt lat="44.15125" lon="6.07215">
        <ele>1252</ele>
        <time>2011-08-17T11:59:41Z</time>
      </trkpt>
      <trkpt lat="44.15111" lon="6.07213">
        <ele>1251</ele>
        <time>2011-08-17T11:59:44Z</time>
      </trkpt>
      <trkpt lat="44.15087" lon="6.07212">
        <ele>1250</ele>
        <time>2011-08-17T11:59:49Z</time>
      </trkpt>
      <trkpt lat="44.15054" lon="6.07206">
        <ele>1243</ele>
        <time>2011-08-17T11:59:57Z</time>
      </trkpt>
      <trkpt lat="44.15024" lon="6.072">
        <ele>1242</ele>
        <time>2011-08-17T12:00:04Z</time>
      </trkpt>
      <trkpt lat="44.14995" lon="6.07176">
        <ele>1239</ele>
        <time>2011-08-17T12:00:11Z</time>
      </trkpt>
      <trkpt lat="44.14963" lon="6.07159">
        <ele>1240</ele>
        <time>2011-08-17T12:00:16Z</time>
      </trkpt>
      <trkpt lat="44.14896" lon="6.07133">
        <ele>1225</ele>
        <time>2011-08-17T12:00:26Z</time>
      </trkpt>
      <trkpt lat="44.14853" lon="6.07107">
        <ele>1223</ele>
        <time>2011-08-17T12:00:40Z</time>
      </trkpt>
      <trkpt lat="44.14826" lon="6.07068">
        <ele>1212</ele>
        <time>2011-08-17T12:00:52Z</time>
      </trkpt>
      <trkpt lat="44.14831" lon="6.06996">
        <ele>1213</ele>
        <time>2011-08-17T12:01:04Z</time>
      </trkpt>
      <trkpt lat="44.14853" lon="6.06957">
        <ele>1221</ele>
        <time>2011-08-17T12:01:15Z</time>
      </trkpt>
      <trkpt lat="44.14872" lon="6.06912">
        <ele>1214</ele>
        <time>2011-08-17T12:01:27Z</time>
      </trkpt>
      <trkpt lat="44.1488" lon="6.06877">
        <ele>1213</ele>
        <time>2011-08-17T12:01:35Z</time>
      </trkpt>
      <trkpt lat="44.14886" lon="6.06823">
        <ele>1202</ele>
        <time>2011-08-17T12:01:47Z</time>
      </trkpt>
      <trkpt lat="44.1488" lon="6.06809">
        <ele>1200</ele>
        <time>2011-08-17T12:01:49Z</time>
      </trkpt>
      <trkpt lat="44.14834" lon="6.06751">
        <ele>1200</ele>
        <time>2011-08-17T12:01:58Z</time>
      </trkpt>
      <trkpt lat="44.14822" lon="6.06739">
        <ele>1194</ele>
        <time>2011-08-17T12:02:00Z</time>
      </trkpt>
      <trkpt lat="44.14769" lon="6.06706">
        <ele>1189</ele>
        <time>2011-08-17T12:02:09Z</time>
      </trkpt>
      <trkpt lat="44.14726" lon="6.06688">
        <ele>1184</ele>
        <time>2011-08-17T12:02:18Z</time>
      </trkpt>
      <trkpt lat="44.14699" lon="6.06673">
        <ele>1183</ele>
        <time>2011-08-17T12:02:24Z</time>
      </trkpt>
      <trkpt lat="44.14685" lon="6.06661">
        <ele>1180</ele>
        <time>2011-08-17T12:02:27Z</time>
      </trkpt>
      <trkpt lat="44.14664" lon="6.06649">
        <ele>1178</ele>
        <time>2011-08-17T12:02:32Z</time>
      </trkpt>
      <trkpt lat="44.14636" lon="6.06628">
        <ele>1173</ele>
        <time>2011-08-17T12:02:38Z</time>
      </trkpt>
      <trkpt lat="44.14597" lon="6.06602">
        <ele>1169</ele>
        <time>2011-08-17T12:02:46Z</time>
      </trkpt>
      <trkpt lat="44.14567" lon="6.06591">
        <ele>1170</ele>
        <time>2011-08-17T12:02:55Z</time>
      </trkpt>
      <trkpt lat="44.14543" lon="6.06583">
        <ele>1166</ele>
        <time>2011-08-17T12:03:06Z</time>
      </trkpt>
      <trkpt lat="44.14535" lon="6.06582">
        <ele>1167</ele>
        <time>2011-08-17T12:03:16Z</time>
      </trkpt>
      <trkpt lat="44.14531" lon="6.06584">
        <ele>1175</ele>
        <time>2011-08-17T12:03:36Z</time>
      </trkpt>
      <trkpt lat="44.14519" lon="6.06581">
        <ele>1171</ele>
        <time>2011-08-17T12:03:52Z</time>
      </trkpt>
      <trkpt lat="44.14509" lon="6.06573">
        <ele>1173</ele>
        <time>2011-08-17T12:04:09Z</time>
      </trkpt>
      <trkpt lat="44.145" lon="6.06574">
        <ele>1175</ele>
        <time>2011-08-17T12:04:24Z</time>
      </trkpt>
      <trkpt lat="44.14495" lon="6.0657">
        <ele>1182</ele>
        <time>2011-08-17T12:04:38Z</time>
      </trkpt>
      <trkpt lat="44.14484" lon="6.06566">
        <ele>1183</ele>
        <time>2011-08-17T12:04:52Z</time>
      </trkpt>
      <trkpt lat="44.14472" lon="6.06564">
        <ele>1185</ele>
        <time>2011-08-17T12:05:07Z</time>
      </trkpt>
      <trkpt lat="44.14464" lon="6.06566">
        <ele>1186</ele>
        <time>2011-08-17T12:05:22Z</time>
      </trkpt>
      <trkpt lat="44.1445" lon="6.06563">
        <ele>1189</ele>
        <time>2011-08-17T12:05:40Z</time>
      </trkpt>
      <trkpt lat="44.14436" lon="6.06557">
        <ele>1191</ele>
        <time>2011-08-17T12:06:00Z</time>
      </trkpt>
      <trkpt lat="44.14423" lon="6.06557">
        <ele>1193</ele>
        <time>2011-08-17T12:06:18Z</time>
      </trkpt>
      <trkpt lat="44.14412" lon="6.0656">
        <ele>1203</ele>
        <time>2011-08-17T12:06:36Z</time>
      </trkpt>
      <trkpt lat="44.14402" lon="6.06553">
        <ele>1203</ele>
        <time>2011-08-17T12:06:52Z</time>
      </trkpt>
      <trkpt lat="44.14395" lon="6.0655">
        <ele>1202</ele>
        <time>2011-08-17T12:07:11Z</time>
      </trkpt>
      <trkpt lat="44.14382" lon="6.06535">
        <ele>1202</ele>
        <time>2011-08-17T12:07:27Z</time>
      </trkpt>
      <trkpt lat="44.14365" lon="6.06488">
        <ele>1194</ele>
        <time>2011-08-17T12:07:40Z</time>
      </trkpt>
      <trkpt lat="44.1435" lon="6.06472">
        <ele>1194</ele>
        <time>2011-08-17T12:07:45Z</time>
      </trkpt>
      <trkpt lat="44.14338" lon="6.06447">
        <ele>1192</ele>
        <time>2011-08-17T12:07:50Z</time>
      </trkpt>
      <trkpt lat="44.14317" lon="6.06423">
        <ele>1192</ele>
        <time>2011-08-17T12:07:55Z</time>
      </trkpt>
      <trkpt lat="44.14307" lon="6.06412">
        <ele>1186</ele>
        <time>2011-08-17T12:07:57Z</time>
      </trkpt>
      <trkpt lat="44.14266" lon="6.06385">
        <ele>1185</ele>
        <time>2011-08-17T12:08:06Z</time>
      </trkpt>
      <trkpt lat="44.14235" lon="6.0638">
        <ele>1186</ele>
        <time>2011-08-17T12:08:17Z</time>
      </trkpt>
      <trkpt lat="44.14202" lon="6.06365">
        <ele>1186</ele>
        <time>2011-08-17T12:08:29Z</time>
      </trkpt>
      <trkpt lat="44.14184" lon="6.06341">
        <ele>1187</ele>
        <time>2011-08-17T12:08:36Z</time>
      </trkpt>
      <trkpt lat="44.14164" lon="6.06294">
        <ele>1182</ele>
        <time>2011-08-17T12:08:44Z</time>
      </trkpt>
      <trkpt lat="44.14125" lon="6.06249">
        <ele>1176</ele>
        <time>2011-08-17T12:08:52Z</time>
      </trkpt>
      <trkpt lat="44.14069" lon="6.06227">
        <ele>1177</ele>
        <time>2011-08-17T12:09:05Z</time>
      </trkpt>
      <trkpt lat="44.14038" lon="6.06238">
        <ele>1176</ele>
        <time>2011-08-17T12:09:11Z</time>
      </trkpt>
      <trkpt lat="44.14013" lon="6.06246">
        <ele>1177</ele>
        <time>2011-08-17T12:09:16Z</time>
      </trkpt>
      <trkpt lat="44.13987" lon="6.06242">
        <ele>1173</ele>
        <time>2011-08-17T12:09:22Z</time>
      </trkpt>
      <trkpt lat="44.13969" lon="6.06232">
        <ele>1170</ele>
        <time>2011-08-17T12:09:26Z</time>
      </trkpt>
      <trkpt lat="44.1393" lon="6.06233">
        <ele>1168</ele>
        <time>2011-08-17T12:09:37Z</time>
      </trkpt>
      <trkpt lat="44.13923" lon="6.06246">
        <ele>1169</ele>
        <time>2011-08-17T12:09:42Z</time>
      </trkpt>
      <trkpt lat="44.13905" lon="6.06275">
        <ele>1156</ele>
        <time>2011-08-17T12:09:48Z</time>
      </trkpt>
      <trkpt lat="44.13885" lon="6.06302">
        <ele>1150</ele>
        <time>2011-08-17T12:09:55Z</time>
      </trkpt>
      <trkpt lat="44.13878" lon="6.0635">
        <ele>1144</ele>
        <time>2011-08-17T12:10:08Z</time>
      </trkpt>
      <trkpt lat="44.13867" lon="6.06393">
        <ele>1140</ele>
        <time>2011-08-17T12:10:15Z</time>
      </trkpt>
      <trkpt lat="44.13857" lon="6.06451">
        <ele>1131</ele>
        <time>2011-08-17T12:10:23Z</time>
      </trkpt>
      <trkpt lat="44.13856" lon="6.06482">
        <ele>1130</ele>
        <time>2011-08-17T12:10:27Z</time>
      </trkpt>
      <trkpt lat="44.13856" lon="6.06501">
        <ele>1126</ele>
        <time>2011-08-17T12:10:29Z</time>
      </trkpt>
      <trkpt lat="44.13858" lon="6.06524">
        <ele>1126</ele>
        <time>2011-08-17T12:10:32Z</time>
      </trkpt>
      <trkpt lat="44.13864" lon="6.06541">
        <ele>1125</ele>
        <time>2011-08-17T12:10:35Z</time>
      </trkpt>
      <trkpt lat="44.1386" lon="6.06592">
        <ele>1125</ele>
        <time>2011-08-17T12:10:41Z</time>
      </trkpt>
      <trkpt lat="44.13846" lon="6.0663">
        <ele>1127</ele>
        <time>2011-08-17T12:10:49Z</time>
      </trkpt>
      <trkpt lat="44.13825" lon="6.06661">
        <ele>1129</ele>
        <time>2011-08-17T12:11:06Z</time>
      </trkpt>
      <trkpt lat="44.13806" lon="6.06674">
        <ele>1126</ele>
        <time>2011-08-17T12:11:17Z</time>
      </trkpt>
      <trkpt lat="44.13782" lon="6.06701">
        <ele>1122</ele>
        <time>2011-08-17T12:11:27Z</time>
      </trkpt>
      <trkpt lat="44.13776" lon="6.06722">
        <ele>1121</ele>
        <time>2011-08-17T12:11:32Z</time>
      </trkpt>
      <trkpt lat="44.13767" lon="6.06736">
        <ele>1120</ele>
        <time>2011-08-17T12:11:35Z</time>
      </trkpt>
      <trkpt lat="44.13746" lon="6.06772">
        <ele>1105</ele>
        <time>2011-08-17T12:11:43Z</time>
      </trkpt>
      <trkpt lat="44.13731" lon="6.06785">
        <ele>1101</ele>
        <time>2011-08-17T12:11:50Z</time>
      </trkpt>
      <trkpt lat="44.13729" lon="6.06789">
        <ele>1100</ele>
        <time>2011-08-17T12:11:53Z</time>
      </trkpt>
      <trkpt lat="44.13721" lon="6.06787">
        <ele>1099</ele>
        <time>2011-08-17T12:12:06Z</time>
      </trkpt>
      <trkpt lat="44.13717" lon="6.06785">
        <ele>1098</ele>
        <time>2011-08-17T12:12:24Z</time>
      </trkpt>
      <trkpt lat="44.13714" lon="6.06795">
        <ele>1097</ele>
        <time>2011-08-17T12:12:39Z</time>
      </trkpt>
      <trkpt lat="44.13711" lon="6.06802">
        <ele>1097</ele>
        <time>2011-08-17T12:12:53Z</time>
      </trkpt>
      <trkpt lat="44.13711" lon="6.06801">
        <ele>1097</ele>
        <time>2011-08-17T12:12:54Z</time>
      </trkpt>
      <trkpt lat="44.13705" lon="6.0681">
        <ele>1096</ele>
        <time>2011-08-17T12:13:05Z</time>
      </trkpt>
      <trkpt lat="44.13704" lon="6.06818">
        <ele>1096</ele>
        <time>2011-08-17T12:13:11Z</time>
      </trkpt>
      <trkpt lat="44.13697" lon="6.06831">
        <ele>1095</ele>
        <time>2011-08-17T12:13:27Z</time>
      </trkpt>
      <trkpt lat="44.13689" lon="6.06841">
        <ele>1093</ele>
        <time>2011-08-17T12:13:42Z</time>
      </trkpt>
      <trkpt lat="44.13678" lon="6.06857">
        <ele>1093</ele>
        <time>2011-08-17T12:13:46Z</time>
      </trkpt>
      <trkpt lat="44.13673" lon="6.06878">
        <ele>1093</ele>
        <time>2011-08-17T12:13:50Z</time>
      </trkpt>
      <trkpt lat="44.13675" lon="6.06896">
        <ele>1092</ele>
        <time>2011-08-17T12:13:53Z</time>
      </trkpt>
      <trkpt lat="44.13657" lon="6.06942">
        <ele>1089</ele>
        <time>2011-08-17T12:14:05Z</time>
      </trkpt>
      <trkpt lat="44.13631" lon="6.06956">
        <ele>1089</ele>
        <time>2011-08-17T12:14:15Z</time>
      </trkpt>
      <trkpt lat="44.13625" lon="6.06955">
        <ele>1089</ele>
        <time>2011-08-17T12:14:17Z</time>
      </trkpt>
      <trkpt lat="44.13595" lon="6.06958">
        <ele>1090</ele>
        <time>2011-08-17T12:14:30Z</time>
      </trkpt>
      <trkpt lat="44.13579" lon="6.06941">
        <ele>1086</ele>
        <time>2011-08-17T12:14:39Z</time>
      </trkpt>
      <trkpt lat="44.13575" lon="6.06939">
        <ele>1086</ele>
        <time>2011-08-17T12:14:45Z</time>
      </trkpt>
      <trkpt lat="44.13563" lon="6.06947">
        <ele>1086</ele>
        <time>2011-08-17T12:15:04Z</time>
      </trkpt>
      <trkpt lat="44.13559" lon="6.06953">
        <ele>1086</ele>
        <time>2011-08-17T12:15:19Z</time>
      </trkpt>
      <trkpt lat="44.13549" lon="6.06963">
        <ele>1086</ele>
        <time>2011-08-17T12:15:41Z</time>
      </trkpt>
      <trkpt lat="44.13535" lon="6.06979">
        <ele>1087</ele>
        <time>2011-08-17T12:16:05Z</time>
      </trkpt>
      <trkpt lat="44.13533" lon="6.06985">
        <ele>1088</ele>
        <time>2011-08-17T12:16:11Z</time>
      </trkpt>
      <trkpt lat="44.13522" lon="6.07008">
        <ele>1097</ele>
        <time>2011-08-17T12:16:30Z</time>
      </trkpt>
      <trkpt lat="44.13514" lon="6.07028">
        <ele>1099</ele>
        <time>2011-08-17T12:16:48Z</time>
      </trkpt>
      <trkpt lat="44.13513" lon="6.07032">
        <ele>1099</ele>
        <time>2011-08-17T12:16:52Z</time>
      </trkpt>
      <trkpt lat="44.13501" lon="6.0706">
        <ele>1103</ele>
        <time>2011-08-17T12:17:10Z</time>
      </trkpt>
      <trkpt lat="44.13487" lon="6.07085">
        <ele>1110</ele>
        <time>2011-08-17T12:17:32Z</time>
      </trkpt>
      <trkpt lat="44.13479" lon="6.07102">
        <ele>1111</ele>
        <time>2011-08-17T12:17:53Z</time>
      </trkpt>
      <trkpt lat="44.13466" lon="6.07123">
        <ele>1112</ele>
        <time>2011-08-17T12:18:14Z</time>
      </trkpt>
      <trkpt lat="44.1345" lon="6.07138">
        <ele>1114</ele>
        <time>2011-08-17T12:18:36Z</time>
      </trkpt>
      <trkpt lat="44.13435" lon="6.07154">
        <ele>1117</ele>
        <time>2011-08-17T12:18:56Z</time>
      </trkpt>
      <trkpt lat="44.1342" lon="6.0716">
        <ele>1122</ele>
        <time>2011-08-17T12:19:16Z</time>
      </trkpt>
      <trkpt lat="44.13406" lon="6.07167">
        <ele>1125</ele>
        <time>2011-08-17T12:19:27Z</time>
      </trkpt>
      <trkpt lat="44.13399" lon="6.07166">
        <ele>1118</ele>
        <time>2011-08-17T12:19:30Z</time>
      </trkpt>
      <trkpt lat="44.13375" lon="6.0718">
        <ele>1126</ele>
        <time>2011-08-17T12:19:41Z</time>
      </trkpt>
      <trkpt lat="44.13339" lon="6.07187">
        <ele>1126</ele>
        <time>2011-08-17T12:19:54Z</time>
      </trkpt>
      <trkpt lat="44.13309" lon="6.07185">
        <ele>1124</ele>
        <time>2011-08-17T12:20:04Z</time>
      </trkpt>
      <trkpt lat="44.13288" lon="6.07191">
        <ele>1124</ele>
        <time>2011-08-17T12:20:08Z</time>
      </trkpt>
      <trkpt lat="44.1327" lon="6.072">
        <ele>1123</ele>
        <time>2011-08-17T12:20:12Z</time>
      </trkpt>
      <trkpt lat="44.13243" lon="6.07217">
        <ele>1123</ele>
        <time>2011-08-17T12:20:18Z</time>
      </trkpt>
      <trkpt lat="44.13238" lon="6.07218">
        <ele>1123</ele>
        <time>2011-08-17T12:20:19Z</time>
      </trkpt>
      <trkpt lat="44.13209" lon="6.07238">
        <ele>1125</ele>
        <time>2011-08-17T12:20:30Z</time>
      </trkpt>
      <trkpt lat="44.13184" lon="6.07242">
        <ele>1126</ele>
        <time>2011-08-17T12:20:40Z</time>
      </trkpt>
      <trkpt lat="44.13166" lon="6.07237">
        <ele>1130</ele>
        <time>2011-08-17T12:20:48Z</time>
      </trkpt>
      <trkpt lat="44.13146" lon="6.07231">
        <ele>1130</ele>
        <time>2011-08-17T12:20:58Z</time>
      </trkpt>
      <trkpt lat="44.1313" lon="6.07221">
        <ele>1129</ele>
        <time>2011-08-17T12:21:07Z</time>
      </trkpt>
      <trkpt lat="44.13079" lon="6.072">
        <ele>1137</ele>
        <time>2011-08-17T12:21:28Z</time>
      </trkpt>
      <trkpt lat="44.13042" lon="6.07203">
        <ele>1139</ele>
        <time>2011-08-17T12:21:45Z</time>
      </trkpt>
      <trkpt lat="44.12992" lon="6.07207">
        <ele>1146</ele>
        <time>2011-08-17T12:22:06Z</time>
      </trkpt>
      <trkpt lat="44.12952" lon="6.07209">
        <ele>1147</ele>
        <time>2011-08-17T12:22:24Z</time>
      </trkpt>
      <trkpt lat="44.12906" lon="6.07206">
        <ele>1151</ele>
        <time>2011-08-17T12:22:43Z</time>
      </trkpt>
      <trkpt lat="44.12858" lon="6.07203">
        <ele>1151</ele>
        <time>2011-08-17T12:23:03Z</time>
      </trkpt>
      <trkpt lat="44.1284" lon="6.072">
        <ele>1150</ele>
        <time>2011-08-17T12:23:17Z</time>
      </trkpt>
      <trkpt lat="44.12839" lon="6.07202">
        <ele>1151</ele>
        <time>2011-08-17T12:23:19Z</time>
      </trkpt>
      <trkpt lat="44.12838" lon="6.07205">
        <ele>1151</ele>
        <time>2011-08-17T12:23:21Z</time>
      </trkpt>
      <trkpt lat="44.12834" lon="6.07214">
        <ele>1153</ele>
        <time>2011-08-17T12:23:36Z</time>
      </trkpt>
      <trkpt lat="44.12801" lon="6.07246">
        <ele>1150</ele>
        <time>2011-08-17T12:23:49Z</time>
      </trkpt>
      <trkpt lat="44.12786" lon="6.07261">
        <ele>1153</ele>
        <time>2011-08-17T12:23:54Z</time>
      </trkpt>
      <trkpt lat="44.1276" lon="6.07282">
        <ele>1151</ele>
        <time>2011-08-17T12:24:03Z</time>
      </trkpt>
      <trkpt lat="44.12748" lon="6.07297">
        <ele>1137</ele>
        <time>2011-08-17T12:24:07Z</time>
      </trkpt>
      <trkpt lat="44.12733" lon="6.07313">
        <ele>1137</ele>
        <time>2011-08-17T12:24:11Z</time>
      </trkpt>
      <trkpt lat="44.12706" lon="6.07344">
        <ele>1137</ele>
        <time>2011-08-17T12:24:19Z</time>
      </trkpt>
      <trkpt lat="44.12677" lon="6.0737">
        <ele>1134</ele>
        <time>2011-08-17T12:24:28Z</time>
      </trkpt>
      <trkpt lat="44.1266" lon="6.07386">
        <ele>1123</ele>
        <time>2011-08-17T12:24:33Z</time>
      </trkpt>
      <trkpt lat="44.12649" lon="6.074">
        <ele>1124</ele>
        <time>2011-08-17T12:24:37Z</time>
      </trkpt>
      <trkpt lat="44.12641" lon="6.07407">
        <ele>1123</ele>
        <time>2011-08-17T12:24:40Z</time>
      </trkpt>
      <trkpt lat="44.12614" lon="6.07447">
        <ele>1128</ele>
        <time>2011-08-17T12:24:51Z</time>
      </trkpt>
      <trkpt lat="44.12612" lon="6.07449">
        <ele>1128</ele>
        <time>2011-08-17T12:25:01Z</time>
      </trkpt>
      <trkpt lat="44.126" lon="6.07471">
        <ele>1129</ele>
        <time>2011-08-17T12:25:11Z</time>
      </trkpt>
      <trkpt lat="44.12596" lon="6.07473">
        <ele>1129</ele>
        <time>2011-08-17T12:25:22Z</time>
      </trkpt>
      <trkpt lat="44.12595" lon="6.07476">
        <ele>1129</ele>
        <time>2011-08-17T12:25:40Z</time>
      </trkpt>
      <trkpt lat="44.12579" lon="6.07491">
        <ele>1121</ele>
        <time>2011-08-17T12:26:01Z</time>
      </trkpt>
      <trkpt lat="44.12574" lon="6.07494">
        <ele>1121</ele>
        <time>2011-08-17T12:26:07Z</time>
      </trkpt>
      <trkpt lat="44.12573" lon="6.07495">
        <ele>1121</ele>
        <time>2011-08-17T12:26:09Z</time>
      </trkpt>
      <trkpt lat="44.1257" lon="6.07497">
        <ele>1120</ele>
        <time>2011-08-17T12:26:16Z</time>
      </trkpt>
      <trkpt lat="44.12545" lon="6.07522">
        <ele>1125</ele>
        <time>2011-08-17T12:26:29Z</time>
      </trkpt>
      <trkpt lat="44.1253" lon="6.07533">
        <ele>1124</ele>
        <time>2011-08-17T12:26:35Z</time>
      </trkpt>
      <trkpt lat="44.12518" lon="6.07547">
        <ele>1124</ele>
        <time>2011-08-17T12:26:40Z</time>
      </trkpt>
      <trkpt lat="44.12517" lon="6.07549">
        <ele>1124</ele>
        <time>2011-08-17T12:26:43Z</time>
      </trkpt>
      <trkpt lat="44.12515" lon="6.07551">
        <ele>1124</ele>
        <time>2011-08-17T12:26:45Z</time>
      </trkpt>
      <trkpt lat="44.12495" lon="6.0757">
        <ele>1114</ele>
        <time>2011-08-17T12:26:57Z</time>
      </trkpt>
      <trkpt lat="44.12493" lon="6.07574">
        <ele>1115</ele>
        <time>2011-08-17T12:27:09Z</time>
      </trkpt>
      <trkpt lat="44.12487" lon="6.07581">
        <ele>1115</ele>
        <time>2011-08-17T12:27:23Z</time>
      </trkpt>
      <trkpt lat="44.12485" lon="6.07586">
        <ele>1123</ele>
        <time>2011-08-17T12:27:33Z</time>
      </trkpt>
      <trkpt lat="44.12482" lon="6.07589">
        <ele>1123</ele>
        <time>2011-08-17T12:27:46Z</time>
      </trkpt>
      <trkpt lat="44.12473" lon="6.07596">
        <ele>1122</ele>
        <time>2011-08-17T12:27:59Z</time>
      </trkpt>
      <trkpt lat="44.12468" lon="6.07599">
        <ele>1122</ele>
        <time>2011-08-17T12:28:14Z</time>
      </trkpt>
      <trkpt lat="44.12463" lon="6.07605">
        <ele>1121</ele>
        <time>2011-08-17T12:28:21Z</time>
      </trkpt>
      <trkpt lat="44.12462" lon="6.07611">
        <ele>1122</ele>
        <time>2011-08-17T12:28:30Z</time>
      </trkpt>
      <trkpt lat="44.12457" lon="6.07617">
        <ele>1122</ele>
        <time>2011-08-17T12:28:42Z</time>
      </trkpt>
      <trkpt lat="44.12456" lon="6.07618">
        <ele>1122</ele>
        <time>2011-08-17T12:28:44Z</time>
      </trkpt>
      <trkpt lat="44.12443" lon="6.07635">
        <ele>1123</ele>
        <time>2011-08-17T12:29:02Z</time>
      </trkpt>
      <trkpt lat="44.12435" lon="6.07642">
        <ele>1123</ele>
        <time>2011-08-17T12:29:15Z</time>
      </trkpt>
      <trkpt lat="44.12415" lon="6.07655">
        <ele>1117</ele>
        <time>2011-08-17T12:29:36Z</time>
      </trkpt>
      <trkpt lat="44.12396" lon="6.07666">
        <ele>1114</ele>
        <time>2011-08-17T12:29:55Z</time>
      </trkpt>
      <trkpt lat="44.12382" lon="6.07674">
        <ele>1126</ele>
        <time>2011-08-17T12:30:11Z</time>
      </trkpt>
      <trkpt lat="44.12371" lon="6.07682">
        <ele>1125</ele>
        <time>2011-08-17T12:30:27Z</time>
      </trkpt>
      <trkpt lat="44.12353" lon="6.07697">
        <ele>1126</ele>
        <time>2011-08-17T12:30:49Z</time>
      </trkpt>
      <trkpt lat="44.12333" lon="6.07709">
        <ele>1123</ele>
        <time>2011-08-17T12:31:11Z</time>
      </trkpt>
      <trkpt lat="44.12321" lon="6.07715">
        <ele>1124</ele>
        <time>2011-08-17T12:31:28Z</time>
      </trkpt>
      <trkpt lat="44.12302" lon="6.07731">
        <ele>1126</ele>
        <time>2011-08-17T12:31:51Z</time>
      </trkpt>
      <trkpt lat="44.12289" lon="6.07751">
        <ele>1131</ele>
        <time>2011-08-17T12:32:12Z</time>
      </trkpt>
      <trkpt lat="44.12291" lon="6.07754">
        <ele>1131</ele>
        <time>2011-08-17T12:32:18Z</time>
      </trkpt>
      <trkpt lat="44.12295" lon="6.07776">
        <ele>1129</ele>
        <time>2011-08-17T12:32:26Z</time>
      </trkpt>
      <trkpt lat="44.123" lon="6.07783">
        <ele>1129</ele>
        <time>2011-08-17T12:32:29Z</time>
      </trkpt>
      <trkpt lat="44.12304" lon="6.078">
        <ele>1127</ele>
        <time>2011-08-17T12:32:34Z</time>
      </trkpt>
      <trkpt lat="44.12308" lon="6.07808">
        <ele>1126</ele>
        <time>2011-08-17T12:32:36Z</time>
      </trkpt>
      <trkpt lat="44.12319" lon="6.07822">
        <ele>1123</ele>
        <time>2011-08-17T12:32:41Z</time>
      </trkpt>
      <trkpt lat="44.12327" lon="6.07835">
        <ele>1114</ele>
        <time>2011-08-17T12:32:46Z</time>
      </trkpt>
      <trkpt lat="44.12363" lon="6.07846">
        <ele>1102</ele>
        <time>2011-08-17T12:32:58Z</time>
      </trkpt>
      <trkpt lat="44.12368" lon="6.07848">
        <ele>1101</ele>
        <time>2011-08-17T12:33:00Z</time>
      </trkpt>
      <trkpt lat="44.1235" lon="6.07869">
        <ele>1098</ele>
        <time>2011-08-17T12:33:10Z</time>
      </trkpt>
      <trkpt lat="44.12323" lon="6.07888">
        <ele>1097</ele>
        <time>2011-08-17T12:33:19Z</time>
      </trkpt>
      <trkpt lat="44.12305" lon="6.07895">
        <ele>1097</ele>
        <time>2011-08-17T12:33:25Z</time>
      </trkpt>
      <trkpt lat="44.12301" lon="6.07901">
        <ele>1096</ele>
        <time>2011-08-17T12:33:30Z</time>
      </trkpt>
      <trkpt lat="44.12328" lon="6.07904">
        <ele>1089</ele>
        <time>2011-08-17T12:33:40Z</time>
      </trkpt>
      <trkpt lat="44.12349" lon="6.07894">
        <ele>1091</ele>
        <time>2011-08-17T12:33:47Z</time>
      </trkpt>
      <trkpt lat="44.1239" lon="6.07889">
        <ele>1092</ele>
        <time>2011-08-17T12:33:56Z</time>
      </trkpt>
      <trkpt lat="44.12418" lon="6.07897">
        <ele>1090</ele>
        <time>2011-08-17T12:34:03Z</time>
      </trkpt>
      <trkpt lat="44.1242" lon="6.079">
        <ele>1089</ele>
        <time>2011-08-17T12:34:04Z</time>
      </trkpt>
      <trkpt lat="44.12417" lon="6.07909">
        <ele>1084</ele>
        <time>2011-08-17T12:34:10Z</time>
      </trkpt>
      <trkpt lat="44.12407" lon="6.07908">
        <ele>1086</ele>
        <time>2011-08-17T12:34:13Z</time>
      </trkpt>
      <trkpt lat="44.1239" lon="6.07923">
        <ele>1073</ele>
        <time>2011-08-17T12:34:18Z</time>
      </trkpt>
      <trkpt lat="44.12371" lon="6.07946">
        <ele>1070</ele>
        <time>2011-08-17T12:34:23Z</time>
      </trkpt>
      <trkpt lat="44.12314" lon="6.07994">
        <ele>1061</ele>
        <time>2011-08-17T12:34:36Z</time>
      </trkpt>
      <trkpt lat="44.12305" lon="6.08">
        <ele>1063</ele>
        <time>2011-08-17T12:34:39Z</time>
      </trkpt>
      <trkpt lat="44.12307" lon="6.0801">
        <ele>1048</ele>
        <time>2011-08-17T12:34:46Z</time>
      </trkpt>
      <trkpt lat="44.12294" lon="6.08019">
        <ele>1047</ele>
        <time>2011-08-17T12:34:51Z</time>
      </trkpt>
      <trkpt lat="44.12287" lon="6.08029">
        <ele>1046</ele>
        <time>2011-08-17T12:34:55Z</time>
      </trkpt>
      <trkpt lat="44.12296" lon="6.0805">
        <ele>1044</ele>
        <time>2011-08-17T12:35:01Z</time>
      </trkpt>
      <trkpt lat="44.12294" lon="6.08067">
        <ele>1042</ele>
        <time>2011-08-17T12:35:05Z</time>
      </trkpt>
      <trkpt lat="44.12285" lon="6.08078">
        <ele>1040</ele>
        <time>2011-08-17T12:35:08Z</time>
      </trkpt>
      <trkpt lat="44.12268" lon="6.08078">
        <ele>1038</ele>
        <time>2011-08-17T12:35:12Z</time>
      </trkpt>
      <trkpt lat="44.12242" lon="6.08104">
        <ele>1031</ele>
        <time>2011-08-17T12:35:18Z</time>
      </trkpt>
      <trkpt lat="44.12239" lon="6.08115">
        <ele>1031</ele>
        <time>2011-08-17T12:35:20Z</time>
      </trkpt>
      <trkpt lat="44.12247" lon="6.08148">
        <ele>1023</ele>
        <time>2011-08-17T12:35:29Z</time>
      </trkpt>
      <trkpt lat="44.12247" lon="6.08166">
        <ele>1015</ele>
        <time>2011-08-17T12:35:32Z</time>
      </trkpt>
      <trkpt lat="44.12253" lon="6.0819">
        <ele>1011</ele>
        <time>2011-08-17T12:35:35Z</time>
      </trkpt>
      <trkpt lat="44.12256" lon="6.08254">
        <ele>996</ele>
        <time>2011-08-17T12:35:43Z</time>
      </trkpt>
      <trkpt lat="44.12269" lon="6.08295">
        <ele>994</ele>
        <time>2011-08-17T12:35:48Z</time>
      </trkpt>
      <trkpt lat="44.12276" lon="6.08312">
        <ele>992</ele>
        <time>2011-08-17T12:35:51Z</time>
      </trkpt>
      <trkpt lat="44.12308" lon="6.08385">
        <ele>979</ele>
        <time>2011-08-17T12:36:02Z</time>
      </trkpt>
      <trkpt lat="44.1231" lon="6.08428">
        <ele>971</ele>
        <time>2011-08-17T12:36:08Z</time>
      </trkpt>
      <trkpt lat="44.12339" lon="6.08501">
        <ele>954</ele>
        <time>2011-08-17T12:36:18Z</time>
      </trkpt>
      <trkpt lat="44.12346" lon="6.08517">
        <ele>953</ele>
        <time>2011-08-17T12:36:20Z</time>
      </trkpt>
      <trkpt lat="44.12368" lon="6.08579">
        <ele>950</ele>
        <time>2011-08-17T12:36:29Z</time>
      </trkpt>
      <trkpt lat="44.12376" lon="6.08605">
        <ele>944</ele>
        <time>2011-08-17T12:36:38Z</time>
      </trkpt>
      <trkpt lat="44.12381" lon="6.08607">
        <ele>944</ele>
        <time>2011-08-17T12:36:52Z</time>
      </trkpt>
      <trkpt lat="44.12387" lon="6.08632">
        <ele>942</ele>
        <time>2011-08-17T12:36:56Z</time>
      </trkpt>
      <trkpt lat="44.12395" lon="6.08667">
        <ele>935</ele>
        <time>2011-08-17T12:37:01Z</time>
      </trkpt>
      <trkpt lat="44.12397" lon="6.08695">
        <ele>934</ele>
        <time>2011-08-17T12:37:05Z</time>
      </trkpt>
      <trkpt lat="44.12395" lon="6.08715">
        <ele>932</ele>
        <time>2011-08-17T12:37:08Z</time>
      </trkpt>
      <trkpt lat="44.12401" lon="6.08754">
        <ele>924</ele>
        <time>2011-08-17T12:37:13Z</time>
      </trkpt>
      <trkpt lat="44.12409" lon="6.08784">
        <ele>923</ele>
        <time>2011-08-17T12:37:17Z</time>
      </trkpt>
      <trkpt lat="44.12424" lon="6.08811">
        <ele>924</ele>
        <time>2011-08-17T12:37:22Z</time>
      </trkpt>
      <trkpt lat="44.12431" lon="6.08839">
        <ele>916</ele>
        <time>2011-08-17T12:37:26Z</time>
      </trkpt>
      <trkpt lat="44.12434" lon="6.08864">
        <ele>917</ele>
        <time>2011-08-17T12:37:29Z</time>
      </trkpt>
      <trkpt lat="44.12429" lon="6.08896">
        <ele>913</ele>
        <time>2011-08-17T12:37:33Z</time>
      </trkpt>
      <trkpt lat="44.12424" lon="6.08919">
        <ele>904</ele>
        <time>2011-08-17T12:37:36Z</time>
      </trkpt>
      <trkpt lat="44.12431" lon="6.08954">
        <ele>904</ele>
        <time>2011-08-17T12:37:41Z</time>
      </trkpt>
      <trkpt lat="44.12432" lon="6.09004">
        <ele>894</ele>
        <time>2011-08-17T12:37:47Z</time>
      </trkpt>
      <trkpt lat="44.12432" lon="6.09025">
        <ele>894</ele>
        <time>2011-08-17T12:37:50Z</time>
      </trkpt>
      <trkpt lat="44.12439" lon="6.09046">
        <ele>893</ele>
        <time>2011-08-17T12:37:54Z</time>
      </trkpt>
      <trkpt lat="44.12473" lon="6.09094">
        <ele>888</ele>
        <time>2011-08-17T12:38:05Z</time>
      </trkpt>
      <trkpt lat="44.12478" lon="6.09113">
        <ele>888</ele>
        <time>2011-08-17T12:38:08Z</time>
      </trkpt>
      <trkpt lat="44.12502" lon="6.09136">
        <ele>883</ele>
        <time>2011-08-17T12:38:13Z</time>
      </trkpt>
      <trkpt lat="44.12523" lon="6.09145">
        <ele>883</ele>
        <time>2011-08-17T12:38:16Z</time>
      </trkpt>
      <trkpt lat="44.12557" lon="6.09185">
        <ele>876</ele>
        <time>2011-08-17T12:38:23Z</time>
      </trkpt>
      <trkpt lat="44.12589" lon="6.09262">
        <ele>866</ele>
        <time>2011-08-17T12:38:33Z</time>
      </trkpt>
      <trkpt lat="44.12606" lon="6.09284">
        <ele>868</ele>
        <time>2011-08-17T12:38:36Z</time>
      </trkpt>
      <trkpt lat="44.12621" lon="6.09316">
        <ele>867</ele>
        <time>2011-08-17T12:38:39Z</time>
      </trkpt>
      <trkpt lat="44.12634" lon="6.09399">
        <ele>859</ele>
        <time>2011-08-17T12:38:47Z</time>
      </trkpt>
      <trkpt lat="44.12644" lon="6.0944">
        <ele>854</ele>
        <time>2011-08-17T12:38:51Z</time>
      </trkpt>
      <trkpt lat="44.12668" lon="6.09568">
        <ele>845</ele>
        <time>2011-08-17T12:39:02Z</time>
      </trkpt>
      <trkpt lat="44.12707" lon="6.09679">
        <ele>832</ele>
        <time>2011-08-17T12:39:12Z</time>
      </trkpt>
      <trkpt lat="44.12776" lon="6.09788">
        <ele>820</ele>
        <time>2011-08-17T12:39:24Z</time>
      </trkpt>
      <trkpt lat="44.12801" lon="6.09823">
        <ele>818</ele>
        <time>2011-08-17T12:39:28Z</time>
      </trkpt>
      <trkpt lat="44.12843" lon="6.09899">
        <ele>810</ele>
        <time>2011-08-17T12:39:35Z</time>
      </trkpt>
      <trkpt lat="44.12929" lon="6.10043">
        <ele>799</ele>
        <time>2011-08-17T12:39:49Z</time>
      </trkpt>
      <trkpt lat="44.12934" lon="6.10055">
        <ele>798</ele>
        <time>2011-08-17T12:39:50Z</time>
      </trkpt>
      <trkpt lat="44.12952" lon="6.10184">
        <ele>782</ele>
        <time>2011-08-17T12:40:00Z</time>
      </trkpt>
      <trkpt lat="44.12952" lon="6.10232">
        <ele>780</ele>
        <time>2011-08-17T12:40:04Z</time>
      </trkpt>
      <trkpt lat="44.12954" lon="6.10264">
        <ele>775</ele>
        <time>2011-08-17T12:40:07Z</time>
      </trkpt>
      <trkpt lat="44.12988" lon="6.1038">
        <ele>766</ele>
        <time>2011-08-17T12:40:19Z</time>
      </trkpt>
      <trkpt lat="44.13019" lon="6.10473">
        <ele>759</ele>
        <time>2011-08-17T12:40:30Z</time>
      </trkpt>
      <trkpt lat="44.13031" lon="6.10513">
        <ele>761</ele>
        <time>2011-08-17T12:40:40Z</time>
      </trkpt>
      <trkpt lat="44.13002" lon="6.10587">
        <ele>756</ele>
        <time>2011-08-17T12:40:53Z</time>
      </trkpt>
      <trkpt lat="44.1297" lon="6.10678">
        <ele>753</ele>
        <time>2011-08-17T12:41:05Z</time>
      </trkpt>
      <trkpt lat="44.12945" lon="6.10797">
        <ele>751</ele>
        <time>2011-08-17T12:41:17Z</time>
      </trkpt>
      <trkpt lat="44.12936" lon="6.10898">
        <ele>749</ele>
        <time>2011-08-17T12:41:31Z</time>
      </trkpt>
      <trkpt lat="44.12931" lon="6.11029">
        <ele>746</ele>
        <time>2011-08-17T12:41:48Z</time>
      </trkpt>
      <trkpt lat="44.12943" lon="6.11145">
        <ele>745</ele>
        <time>2011-08-17T12:42:01Z</time>
      </trkpt>
      <trkpt lat="44.12944" lon="6.11166">
        <ele>744</ele>
        <time>2011-08-17T12:42:03Z</time>
      </trkpt>
      <trkpt lat="44.1294" lon="6.11212">
        <ele>742</ele>
        <time>2011-08-17T12:42:08Z</time>
      </trkpt>
      <trkpt lat="44.1295" lon="6.11281">
        <ele>740</ele>
        <time>2011-08-17T12:42:14Z</time>
      </trkpt>
      <trkpt lat="44.12952" lon="6.11454">
        <ele>732</ele>
        <time>2011-08-17T12:42:29Z</time>
      </trkpt>
      <trkpt lat="44.12927" lon="6.11601">
        <ele>724</ele>
        <time>2011-08-17T12:42:42Z</time>
      </trkpt>
      <trkpt lat="44.12921" lon="6.11643">
        <ele>724</ele>
        <time>2011-08-17T12:42:46Z</time>
      </trkpt>
      <trkpt lat="44.12927" lon="6.1168">
        <ele>723</ele>
        <time>2011-08-17T12:42:51Z</time>
      </trkpt>
      <trkpt lat="44.12974" lon="6.11731">
        <ele>726</ele>
        <time>2011-08-17T12:43:06Z</time>
      </trkpt>
      <trkpt lat="44.13027" lon="6.11759">
        <ele>727</ele>
        <time>2011-08-17T12:43:21Z</time>
      </trkpt>
      <trkpt lat="44.13031" lon="6.11762">
        <ele>727</ele>
        <time>2011-08-17T12:43:22Z</time>
      </trkpt>
      <trkpt lat="44.13067" lon="6.11781">
        <ele>727</ele>
        <time>2011-08-17T12:43:33Z</time>
      </trkpt>
      <trkpt lat="44.13097" lon="6.11803">
        <ele>730</ele>
        <time>2011-08-17T12:43:46Z</time>
      </trkpt>
      <trkpt lat="44.13138" lon="6.11806">
        <ele>733</ele>
        <time>2011-08-17T12:44:00Z</time>
      </trkpt>
      <trkpt lat="44.13188" lon="6.11841">
        <ele>737</ele>
        <time>2011-08-17T12:44:17Z</time>
      </trkpt>
      <trkpt lat="44.13225" lon="6.11858">
        <ele>739</ele>
        <time>2011-08-17T12:44:30Z</time>
      </trkpt>
      <trkpt lat="44.13249" lon="6.11874">
        <ele>739</ele>
        <time>2011-08-17T12:44:42Z</time>
      </trkpt>
      <trkpt lat="44.1326" lon="6.11886">
        <ele>743</ele>
        <time>2011-08-17T12:44:56Z</time>
      </trkpt>
      <trkpt lat="44.1326" lon="6.11886">
        <ele>743</ele>
        <time>2011-08-17T12:45:17Z</time>
      </trkpt>
      <trkpt lat="44.13249" lon="6.11873">
        <ele>739</ele>
        <time>2011-08-17T12:45:23Z</time>
      </trkpt>
      <trkpt lat="44.13226" lon="6.11859">
        <ele>739</ele>
        <time>2011-08-17T12:45:28Z</time>
      </trkpt>
      <trkpt lat="44.1321" lon="6.11856">
        <ele>738</ele>
        <time>2011-08-17T12:45:31Z</time>
      </trkpt>
      <trkpt lat="44.13182" lon="6.11835">
        <ele>737</ele>
        <time>2011-08-17T12:45:37Z</time>
      </trkpt>
      <trkpt lat="44.13163" lon="6.1182">
        <ele>734</ele>
        <time>2011-08-17T12:45:41Z</time>
      </trkpt>
      <trkpt lat="44.13134" lon="6.11804">
        <ele>732</ele>
        <time>2011-08-17T12:45:46Z</time>
      </trkpt>
      <trkpt lat="44.13088" lon="6.11801">
        <ele>730</ele>
        <time>2011-08-17T12:45:53Z</time>
      </trkpt>
      <trkpt lat="44.13061" lon="6.11777">
        <ele>727</ele>
        <time>2011-08-17T12:46:00Z</time>
      </trkpt>
      <trkpt lat="44.13045" lon="6.1177">
        <ele>727</ele>
        <time>2011-08-17T12:46:04Z</time>
      </trkpt>
      <trkpt lat="44.13019" lon="6.11754">
        <ele>727</ele>
        <time>2011-08-17T12:46:10Z</time>
      </trkpt>
      <trkpt lat="44.1295" lon="6.11709">
        <ele>725</ele>
        <time>2011-08-17T12:46:24Z</time>
      </trkpt>
      <trkpt lat="44.12928" lon="6.11683">
        <ele>724</ele>
        <time>2011-08-17T12:46:29Z</time>
      </trkpt>
      <trkpt lat="44.12908" lon="6.11686">
        <ele>721</ele>
        <time>2011-08-17T12:46:34Z</time>
      </trkpt>
      <trkpt lat="44.12901" lon="6.11696">
        <ele>721</ele>
        <time>2011-08-17T12:46:36Z</time>
      </trkpt>
      <trkpt lat="44.12871" lon="6.11712">
        <ele>721</ele>
        <time>2011-08-17T12:46:41Z</time>
      </trkpt>
      <trkpt lat="44.1285" lon="6.11727">
        <ele>720</ele>
        <time>2011-08-17T12:46:44Z</time>
      </trkpt>
      <trkpt lat="44.12813" lon="6.11745">
        <ele>717</ele>
        <time>2011-08-17T12:46:49Z</time>
      </trkpt>
      <trkpt lat="44.12786" lon="6.11764">
        <ele>721</ele>
        <time>2011-08-17T12:46:53Z</time>
      </trkpt>
      <trkpt lat="44.12727" lon="6.11799">
        <ele>717</ele>
        <time>2011-08-17T12:47:03Z</time>
      </trkpt>
      <trkpt lat="44.12703" lon="6.11831">
        <ele>716</ele>
        <time>2011-08-17T12:47:08Z</time>
      </trkpt>
      <trkpt lat="44.1269" lon="6.11864">
        <ele>721</ele>
        <time>2011-08-17T12:47:12Z</time>
      </trkpt>
      <trkpt lat="44.12675" lon="6.11892">
        <ele>720</ele>
        <time>2011-08-17T12:47:16Z</time>
      </trkpt>
      <trkpt lat="44.12647" lon="6.11924">
        <ele>717</ele>
        <time>2011-08-17T12:47:22Z</time>
      </trkpt>
      <trkpt lat="44.12632" lon="6.11953">
        <ele>717</ele>
        <time>2011-08-17T12:47:28Z</time>
      </trkpt>
      <trkpt lat="44.12583" lon="6.12045">
        <ele>713</ele>
        <time>2011-08-17T12:47:44Z</time>
      </trkpt>
      <trkpt lat="44.1258" lon="6.12051">
        <ele>713</ele>
        <time>2011-08-17T12:47:45Z</time>
      </trkpt>
      <trkpt lat="44.12548" lon="6.12155">
        <ele>717</ele>
        <time>2011-08-17T12:48:02Z</time>
      </trkpt>
      <trkpt lat="44.12508" lon="6.12256">
        <ele>722</ele>
        <time>2011-08-17T12:48:19Z</time>
      </trkpt>
      <trkpt lat="44.12478" lon="6.12318">
        <ele>714</ele>
        <time>2011-08-17T12:48:28Z</time>
      </trkpt>
      <trkpt lat="44.12433" lon="6.12457">
        <ele>714</ele>
        <time>2011-08-17T12:48:40Z</time>
      </trkpt>
      <trkpt lat="44.12372" lon="6.12675">
        <ele>693</ele>
        <time>2011-08-17T12:48:56Z</time>
      </trkpt>
      <trkpt lat="44.12364" lon="6.12727">
        <ele>690</ele>
        <time>2011-08-17T12:49:01Z</time>
      </trkpt>
      <trkpt lat="44.12375" lon="6.12756">
        <ele>683</ele>
        <time>2011-08-17T12:49:08Z</time>
      </trkpt>
      <trkpt lat="44.12379" lon="6.12756">
        <ele>683</ele>
        <time>2011-08-17T12:49:09Z</time>
      </trkpt>
      <trkpt lat="44.12461" lon="6.12736">
        <ele>694</ele>
        <time>2011-08-17T12:49:25Z</time>
      </trkpt>
      <trkpt lat="44.12572" lon="6.12722">
        <ele>694</ele>
        <time>2011-08-17T12:49:45Z</time>
      </trkpt>
      <trkpt lat="44.12578" lon="6.12721">
        <ele>694</ele>
        <time>2011-08-17T12:49:46Z</time>
      </trkpt>
      <trkpt lat="44.12593" lon="6.12723">
        <ele>694</ele>
        <time>2011-08-17T12:49:49Z</time>
      </trkpt>
      <trkpt lat="44.12695" lon="6.12741">
        <ele>695</ele>
        <time>2011-08-17T12:50:08Z</time>
      </trkpt>
      <trkpt lat="44.12764" lon="6.12761">
        <ele>693</ele>
        <time>2011-08-17T12:50:21Z</time>
      </trkpt>
      <trkpt lat="44.12844" lon="6.12803">
        <ele>694</ele>
        <time>2011-08-17T12:50:39Z</time>
      </trkpt>
      <trkpt lat="44.1292" lon="6.12848">
        <ele>690</ele>
        <time>2011-08-17T12:50:54Z</time>
      </trkpt>
      <trkpt lat="44.13064" lon="6.12924">
        <ele>689</ele>
        <time>2011-08-17T12:51:19Z</time>
      </trkpt>
      <trkpt lat="44.1315" lon="6.12993">
        <ele>690</ele>
        <time>2011-08-17T12:51:35Z</time>
      </trkpt>
      <trkpt lat="44.13208" lon="6.13057">
        <ele>693</ele>
        <time>2011-08-17T12:51:49Z</time>
      </trkpt>
      <trkpt lat="44.13247" lon="6.13101">
        <ele>693</ele>
        <time>2011-08-17T12:51:59Z</time>
      </trkpt>
      <trkpt lat="44.13329" lon="6.1315">
        <ele>695</ele>
        <time>2011-08-17T12:52:17Z</time>
      </trkpt>
      <trkpt lat="44.13476" lon="6.13191">
        <ele>696</ele>
        <time>2011-08-17T12:52:45Z</time>
      </trkpt>
      <trkpt lat="44.13591" lon="6.13234">
        <ele>704</ele>
        <time>2011-08-17T12:53:08Z</time>
      </trkpt>
      <trkpt lat="44.1369" lon="6.13298">
        <ele>708</ele>
        <time>2011-08-17T12:53:31Z</time>
      </trkpt>
      <trkpt lat="44.13779" lon="6.13364">
        <ele>710</ele>
        <time>2011-08-17T12:53:52Z</time>
      </trkpt>
      <trkpt lat="44.13864" lon="6.13434">
        <ele>711</ele>
        <time>2011-08-17T12:54:13Z</time>
      </trkpt>
      <trkpt lat="44.13935" lon="6.13484">
        <ele>717</ele>
        <time>2011-08-17T12:54:32Z</time>
      </trkpt>
      <trkpt lat="44.13943" lon="6.1349">
        <ele>717</ele>
        <time>2011-08-17T12:54:34Z</time>
      </trkpt>
      <trkpt lat="44.13955" lon="6.13499">
        <ele>718</ele>
        <time>2011-08-17T12:54:37Z</time>
      </trkpt>
      <trkpt lat="44.1401" lon="6.13542">
        <ele>719</ele>
        <time>2011-08-17T12:54:50Z</time>
      </trkpt>
      <trkpt lat="44.14018" lon="6.13547">
        <ele>719</ele>
        <time>2011-08-17T12:54:52Z</time>
      </trkpt>
      <trkpt lat="44.1403" lon="6.13559">
        <ele>718</ele>
        <time>2011-08-17T12:54:55Z</time>
      </trkpt>
      <trkpt lat="44.14137" lon="6.13605">
        <ele>716</ele>
        <time>2011-08-17T12:55:16Z</time>
      </trkpt>
      <trkpt lat="44.14207" lon="6.13629">
        <ele>722</ele>
        <time>2011-08-17T12:55:32Z</time>
      </trkpt>
      <trkpt lat="44.14287" lon="6.13659">
        <ele>727</ele>
        <time>2011-08-17T12:55:52Z</time>
      </trkpt>
      <trkpt lat="44.14339" lon="6.13693">
        <ele>727</ele>
        <time>2011-08-17T12:56:06Z</time>
      </trkpt>
      <trkpt lat="44.14348" lon="6.13708">
        <ele>727</ele>
        <time>2011-08-17T12:56:10Z</time>
      </trkpt>
      <trkpt lat="44.14431" lon="6.13777">
        <ele>724</ele>
        <time>2011-08-17T12:56:26Z</time>
      </trkpt>
      <trkpt lat="44.14505" lon="6.13821">
        <ele>724</ele>
        <time>2011-08-17T12:56:42Z</time>
      </trkpt>
      <trkpt lat="44.14516" lon="6.13845">
        <ele>723</ele>
        <time>2011-08-17T12:56:46Z</time>
      </trkpt>
      <trkpt lat="44.14546" lon="6.1399">
        <ele>721</ele>
        <time>2011-08-17T12:57:04Z</time>
      </trkpt>
      <trkpt lat="44.14538" lon="6.14116">
        <ele>725</ele>
        <time>2011-08-17T12:57:20Z</time>
      </trkpt>
      <trkpt lat="44.14543" lon="6.14214">
        <ele>733</ele>
        <time>2011-08-17T12:57:35Z</time>
      </trkpt>
      <trkpt lat="44.14557" lon="6.14286">
        <ele>740</ele>
        <time>2011-08-17T12:57:53Z</time>
      </trkpt>
      <trkpt lat="44.14549" lon="6.14349">
        <ele>745</ele>
        <time>2011-08-17T12:58:09Z</time>
      </trkpt>
      <trkpt lat="44.14565" lon="6.14389">
        <ele>746</ele>
        <time>2011-08-17T12:58:23Z</time>
      </trkpt>
      <trkpt lat="44.14588" lon="6.1436">
        <ele>747</ele>
        <time>2011-08-17T12:58:34Z</time>
      </trkpt>
      <trkpt lat="44.14604" lon="6.14311">
        <ele>743</ele>
        <time>2011-08-17T12:58:48Z</time>
      </trkpt>
      <trkpt lat="44.14623" lon="6.14253">
        <ele>742</ele>
        <time>2011-08-17T12:59:03Z</time>
      </trkpt>
      <trkpt lat="44.14654" lon="6.14235">
        <ele>737</ele>
        <time>2011-08-17T12:59:16Z</time>
      </trkpt>
      <trkpt lat="44.1469" lon="6.14276">
        <ele>745</ele>
        <time>2011-08-17T12:59:33Z</time>
      </trkpt>
      <trkpt lat="44.14733" lon="6.14321">
        <ele>749</ele>
        <time>2011-08-17T12:59:52Z</time>
      </trkpt>
      <trkpt lat="44.14789" lon="6.14343">
        <ele>753</ele>
        <time>2011-08-17T13:00:12Z</time>
      </trkpt>
      <trkpt lat="44.14808" lon="6.1439">
        <ele>754</ele>
        <time>2011-08-17T13:00:25Z</time>
      </trkpt>
      <trkpt lat="44.1481" lon="6.14437">
        <ele>761</ele>
        <time>2011-08-17T13:00:38Z</time>
      </trkpt>
      <trkpt lat="44.14814" lon="6.14529">
        <ele>767</ele>
        <time>2011-08-17T13:01:02Z</time>
      </trkpt>
      <trkpt lat="44.14816" lon="6.1461">
        <ele>772</ele>
        <time>2011-08-17T13:01:22Z</time>
      </trkpt>
      <trkpt lat="44.14813" lon="6.14707">
        <ele>780</ele>
        <time>2011-08-17T13:01:46Z</time>
      </trkpt>
      <trkpt lat="44.14826" lon="6.14764">
        <ele>786</ele>
        <time>2011-08-17T13:02:02Z</time>
      </trkpt>
      <trkpt lat="44.14872" lon="6.14808">
        <ele>786</ele>
        <time>2011-08-17T13:02:21Z</time>
      </trkpt>
      <trkpt lat="44.14897" lon="6.14854">
        <ele>792</ele>
        <time>2011-08-17T13:02:36Z</time>
      </trkpt>
      <trkpt lat="44.14933" lon="6.14877">
        <ele>789</ele>
        <time>2011-08-17T13:02:51Z</time>
      </trkpt>
      <trkpt lat="44.14963" lon="6.14879">
        <ele>789</ele>
        <time>2011-08-17T13:03:04Z</time>
      </trkpt>
      <trkpt lat="44.14997" lon="6.14886">
        <ele>789</ele>
        <time>2011-08-17T13:03:18Z</time>
      </trkpt>
      <trkpt lat="44.15014" lon="6.1489">
        <ele>788</ele>
        <time>2011-08-17T13:03:30Z</time>
      </trkpt>
      <trkpt lat="44.15015" lon="6.14893">
        <ele>788</ele>
        <time>2011-08-17T13:03:51Z</time>
      </trkpt>
      <trkpt lat="44.15019" lon="6.14893">
        <ele>787</ele>
        <time>2011-08-17T13:26:21Z</time>
      </trkpt>
      <trkpt lat="44.15027" lon="6.14893">
        <ele>787</ele>
        <time>2011-08-17T13:27:09Z</time>
      </trkpt>
      <trkpt lat="44.15028" lon="6.14901">
        <ele>787</ele>
        <time>2011-08-17T13:27:13Z</time>
      </trkpt>
      <trkpt lat="44.15024" lon="6.14939">
        <ele>793</ele>
        <time>2011-08-17T13:27:29Z</time>
      </trkpt>
      <trkpt lat="44.15024" lon="6.14942">
        <ele>794</ele>
        <time>2011-08-17T13:27:42Z</time>
      </trkpt>
      <trkpt lat="44.15021" lon="6.14949">
        <ele>794</ele>
        <time>2011-08-17T13:27:47Z</time>
      </trkpt>
      <trkpt lat="44.1501" lon="6.14978">
        <ele>795</ele>
        <time>2011-08-17T13:27:58Z</time>
      </trkpt>
      <trkpt lat="44.15002" lon="6.15007">
        <ele>799</ele>
        <time>2011-08-17T13:28:09Z</time>
      </trkpt>
      <trkpt lat="44.14989" lon="6.15061">
        <ele>805</ele>
        <time>2011-08-17T13:28:28Z</time>
      </trkpt>
      <trkpt lat="44.14994" lon="6.15105">
        <ele>811</ele>
        <time>2011-08-17T13:28:45Z</time>
      </trkpt>
      <trkpt lat="44.14992" lon="6.15114">
        <ele>812</ele>
        <time>2011-08-17T13:28:49Z</time>
      </trkpt>
      <trkpt lat="44.14993" lon="6.15154">
        <ele>814</ele>
        <time>2011-08-17T13:29:07Z</time>
      </trkpt>
      <trkpt lat="44.14999" lon="6.15172">
        <ele>816</ele>
        <time>2011-08-17T13:29:17Z</time>
      </trkpt>
      <trkpt lat="44.15013" lon="6.15208">
        <ele>823</ele>
        <time>2011-08-17T13:29:34Z</time>
      </trkpt>
      <trkpt lat="44.15033" lon="6.15251">
        <ele>830</ele>
        <time>2011-08-17T13:29:52Z</time>
      </trkpt>
      <trkpt lat="44.15046" lon="6.15279">
        <ele>831</ele>
        <time>2011-08-17T13:30:06Z</time>
      </trkpt>
      <trkpt lat="44.15069" lon="6.1531">
        <ele>832</ele>
        <time>2011-08-17T13:30:23Z</time>
      </trkpt>
      <trkpt lat="44.15074" lon="6.15343">
        <ele>835</ele>
        <time>2011-08-17T13:30:36Z</time>
      </trkpt>
      <trkpt lat="44.15074" lon="6.15373">
        <ele>837</ele>
        <time>2011-08-17T13:30:49Z</time>
      </trkpt>
      <trkpt lat="44.1508" lon="6.15406">
        <ele>837</ele>
        <time>2011-08-17T13:31:04Z</time>
      </trkpt>
      <trkpt lat="44.15089" lon="6.15453">
        <ele>845</ele>
        <time>2011-08-17T13:31:24Z</time>
      </trkpt>
      <trkpt lat="44.15095" lon="6.15481">
        <ele>846</ele>
        <time>2011-08-17T13:31:35Z</time>
      </trkpt>
      <trkpt lat="44.15096" lon="6.1549">
        <ele>846</ele>
        <time>2011-08-17T13:31:39Z</time>
      </trkpt>
      <trkpt lat="44.15107" lon="6.15548">
        <ele>854</ele>
        <time>2011-08-17T13:32:03Z</time>
      </trkpt>
      <trkpt lat="44.15125" lon="6.15579">
        <ele>856</ele>
        <time>2011-08-17T13:32:22Z</time>
      </trkpt>
      <trkpt lat="44.15125" lon="6.15581">
        <ele>856</ele>
        <time>2011-08-17T13:32:23Z</time>
      </trkpt>
      <trkpt lat="44.15136" lon="6.15631">
        <ele>863</ele>
        <time>2011-08-17T13:32:44Z</time>
      </trkpt>
      <trkpt lat="44.15125" lon="6.15655">
        <ele>864</ele>
        <time>2011-08-17T13:32:56Z</time>
      </trkpt>
      <trkpt lat="44.15102" lon="6.15623">
        <ele>863</ele>
        <time>2011-08-17T13:33:11Z</time>
      </trkpt>
      <trkpt lat="44.15072" lon="6.15589">
        <ele>863</ele>
        <time>2011-08-17T13:33:30Z</time>
      </trkpt>
      <trkpt lat="44.15054" lon="6.15552">
        <ele>859</ele>
        <time>2011-08-17T13:33:46Z</time>
      </trkpt>
      <trkpt lat="44.15033" lon="6.15521">
        <ele>859</ele>
        <time>2011-08-17T13:34:02Z</time>
      </trkpt>
      <trkpt lat="44.15008" lon="6.15514">
        <ele>862</ele>
        <time>2011-08-17T13:34:18Z</time>
      </trkpt>
      <trkpt lat="44.14974" lon="6.15522">
        <ele>870</ele>
        <time>2011-08-17T13:34:35Z</time>
      </trkpt>
      <trkpt lat="44.14948" lon="6.15537">
        <ele>872</ele>
        <time>2011-08-17T13:34:51Z</time>
      </trkpt>
      <trkpt lat="44.14926" lon="6.15547">
        <ele>874</ele>
        <time>2011-08-17T13:35:06Z</time>
      </trkpt>
      <trkpt lat="44.14904" lon="6.1557">
        <ele>882</ele>
        <time>2011-08-17T13:35:27Z</time>
      </trkpt>
      <trkpt lat="44.14898" lon="6.15583">
        <ele>883</ele>
        <time>2011-08-17T13:35:35Z</time>
      </trkpt>
      <trkpt lat="44.14888" lon="6.15588">
        <ele>891</ele>
        <time>2011-08-17T13:35:49Z</time>
      </trkpt>
      <trkpt lat="44.14882" lon="6.15586">
        <ele>892</ele>
        <time>2011-08-17T13:35:56Z</time>
      </trkpt>
      <trkpt lat="44.14878" lon="6.15581">
        <ele>885</ele>
        <time>2011-08-17T13:36:18Z</time>
      </trkpt>
      <trkpt lat="44.14871" lon="6.15578">
        <ele>886</ele>
        <time>2011-08-17T13:36:41Z</time>
      </trkpt>
      <trkpt lat="44.14861" lon="6.15575">
        <ele>887</ele>
        <time>2011-08-17T13:36:59Z</time>
      </trkpt>
      <trkpt lat="44.14829" lon="6.1558">
        <ele>897</ele>
        <time>2011-08-17T13:37:19Z</time>
      </trkpt>
      <trkpt lat="44.14804" lon="6.15568">
        <ele>899</ele>
        <time>2011-08-17T13:37:36Z</time>
      </trkpt>
      <trkpt lat="44.14788" lon="6.15546">
        <ele>900</ele>
        <time>2011-08-17T13:37:49Z</time>
      </trkpt>
      <trkpt lat="44.14778" lon="6.15557">
        <ele>902</ele>
        <time>2011-08-17T13:38:00Z</time>
      </trkpt>
      <trkpt lat="44.14788" lon="6.15573">
        <ele>901</ele>
        <time>2011-08-17T13:38:09Z</time>
      </trkpt>
      <trkpt lat="44.14793" lon="6.1558">
        <ele>901</ele>
        <time>2011-08-17T13:38:13Z</time>
      </trkpt>
      <trkpt lat="44.1481" lon="6.15606">
        <ele>907</ele>
        <time>2011-08-17T13:38:26Z</time>
      </trkpt>
      <trkpt lat="44.1482" lon="6.15627">
        <ele>908</ele>
        <time>2011-08-17T13:38:37Z</time>
      </trkpt>
      <trkpt lat="44.14809" lon="6.15641">
        <ele>910</ele>
        <time>2011-08-17T13:38:50Z</time>
      </trkpt>
      <trkpt lat="44.14784" lon="6.15631">
        <ele>911</ele>
        <time>2011-08-17T13:39:05Z</time>
      </trkpt>
      <trkpt lat="44.14767" lon="6.15631">
        <ele>913</ele>
        <time>2011-08-17T13:39:17Z</time>
      </trkpt>
      <trkpt lat="44.14744" lon="6.15643">
        <ele>921</ele>
        <time>2011-08-17T13:39:30Z</time>
      </trkpt>
      <trkpt lat="44.14741" lon="6.15642">
        <ele>921</ele>
        <time>2011-08-17T13:39:32Z</time>
      </trkpt>
      <trkpt lat="44.1472" lon="6.1563">
        <ele>921</ele>
        <time>2011-08-17T13:39:46Z</time>
      </trkpt>
      <trkpt lat="44.14698" lon="6.15628">
        <ele>922</ele>
        <time>2011-08-17T13:39:57Z</time>
      </trkpt>
      <trkpt lat="44.14676" lon="6.15629">
        <ele>923</ele>
        <time>2011-08-17T13:40:07Z</time>
      </trkpt>
      <trkpt lat="44.14644" lon="6.15629">
        <ele>928</ele>
        <time>2011-08-17T13:40:21Z</time>
      </trkpt>
      <trkpt lat="44.14611" lon="6.15621">
        <ele>929</ele>
        <time>2011-08-17T13:40:39Z</time>
      </trkpt>
      <trkpt lat="44.14582" lon="6.1561">
        <ele>933</ele>
        <time>2011-08-17T13:40:56Z</time>
      </trkpt>
      <trkpt lat="44.1456" lon="6.15594">
        <ele>933</ele>
        <time>2011-08-17T13:41:11Z</time>
      </trkpt>
      <trkpt lat="44.14525" lon="6.15601">
        <ele>935</ele>
        <time>2011-08-17T13:41:30Z</time>
      </trkpt>
      <trkpt lat="44.14487" lon="6.15624">
        <ele>940</ele>
        <time>2011-08-17T13:41:51Z</time>
      </trkpt>
      <trkpt lat="44.14465" lon="6.1566">
        <ele>941</ele>
        <time>2011-08-17T13:42:12Z</time>
      </trkpt>
      <trkpt lat="44.14455" lon="6.15697">
        <ele>947</ele>
        <time>2011-08-17T13:42:30Z</time>
      </trkpt>
      <trkpt lat="44.14425" lon="6.15716">
        <ele>949</ele>
        <time>2011-08-17T13:42:49Z</time>
      </trkpt>
      <trkpt lat="44.14381" lon="6.15725">
        <ele>949</ele>
        <time>2011-08-17T13:43:08Z</time>
      </trkpt>
      <trkpt lat="44.14354" lon="6.1575">
        <ele>951</ele>
        <time>2011-08-17T13:43:25Z</time>
      </trkpt>
      <trkpt lat="44.14359" lon="6.15812">
        <ele>953</ele>
        <time>2011-08-17T13:43:46Z</time>
      </trkpt>
      <trkpt lat="44.1436" lon="6.15817">
        <ele>953</ele>
        <time>2011-08-17T13:43:48Z</time>
      </trkpt>
      <trkpt lat="44.14363" lon="6.15873">
        <ele>960</ele>
        <time>2011-08-17T13:44:11Z</time>
      </trkpt>
      <trkpt lat="44.14367" lon="6.15894">
        <ele>961</ele>
        <time>2011-08-17T13:44:22Z</time>
      </trkpt>
      <trkpt lat="44.14369" lon="6.15901">
        <ele>962</ele>
        <time>2011-08-17T13:44:26Z</time>
      </trkpt>
      <trkpt lat="44.14371" lon="6.15941">
        <ele>969</ele>
        <time>2011-08-17T13:44:47Z</time>
      </trkpt>
      <trkpt lat="44.14358" lon="6.15987">
        <ele>970</ele>
        <time>2011-08-17T13:45:08Z</time>
      </trkpt>
      <trkpt lat="44.14371" lon="6.16024">
        <ele>974</ele>
        <time>2011-08-17T13:45:26Z</time>
      </trkpt>
      <trkpt lat="44.14382" lon="6.16043">
        <ele>975</ele>
        <time>2011-08-17T13:45:36Z</time>
      </trkpt>
      <trkpt lat="44.14391" lon="6.16044">
        <ele>976</ele>
        <time>2011-08-17T13:45:42Z</time>
      </trkpt>
      <trkpt lat="44.14395" lon="6.16033">
        <ele>976</ele>
        <time>2011-08-17T13:45:48Z</time>
      </trkpt>
      <trkpt lat="44.14395" lon="6.16004">
        <ele>977</ele>
        <time>2011-08-17T13:46:03Z</time>
      </trkpt>
      <trkpt lat="44.14411" lon="6.16017">
        <ele>978</ele>
        <time>2011-08-17T13:46:16Z</time>
      </trkpt>
      <trkpt lat="44.14431" lon="6.16055">
        <ele>986</ele>
        <time>2011-08-17T13:46:36Z</time>
      </trkpt>
      <trkpt lat="44.14441" lon="6.1607">
        <ele>987</ele>
        <time>2011-08-17T13:46:50Z</time>
      </trkpt>
      <trkpt lat="44.1446" lon="6.16099">
        <ele>991</ele>
        <time>2011-08-17T13:47:09Z</time>
      </trkpt>
      <trkpt lat="44.14475" lon="6.16123">
        <ele>994</ele>
        <time>2011-08-17T13:47:24Z</time>
      </trkpt>
      <trkpt lat="44.14478" lon="6.16127">
        <ele>994</ele>
        <time>2011-08-17T13:47:27Z</time>
      </trkpt>
      <trkpt lat="44.14484" lon="6.16146">
        <ele>997</ele>
        <time>2011-08-17T13:47:47Z</time>
      </trkpt>
      <trkpt lat="44.14484" lon="6.1615">
        <ele>997</ele>
        <time>2011-08-17T13:47:49Z</time>
      </trkpt>
      <trkpt lat="44.14491" lon="6.16195">
        <ele>1001</ele>
        <time>2011-08-17T13:48:08Z</time>
      </trkpt>
      <trkpt lat="44.14495" lon="6.16242">
        <ele>1009</ele>
        <time>2011-08-17T13:48:28Z</time>
      </trkpt>
      <trkpt lat="44.14497" lon="6.16309">
        <ele>1012</ele>
        <time>2011-08-17T13:48:50Z</time>
      </trkpt>
      <trkpt lat="44.14495" lon="6.1632">
        <ele>1015</ele>
        <time>2011-08-17T13:48:52Z</time>
      </trkpt>
      <trkpt lat="44.14477" lon="6.16374">
        <ele>1017</ele>
        <time>2011-08-17T13:48:58Z</time>
      </trkpt>
      <trkpt lat="44.14458" lon="6.1641">
        <ele>1016</ele>
        <time>2011-08-17T13:49:02Z</time>
      </trkpt>
      <trkpt lat="44.14428" lon="6.16449">
        <ele>1020</ele>
        <time>2011-08-17T13:49:16Z</time>
      </trkpt>
      <trkpt lat="44.14391" lon="6.16502">
        <ele>1007</ele>
        <time>2011-08-17T13:49:34Z</time>
      </trkpt>
      <trkpt lat="44.1438" lon="6.16551">
        <ele>1005</ele>
        <time>2011-08-17T13:49:48Z</time>
      </trkpt>
      <trkpt lat="44.14397" lon="6.16589">
        <ele>1011</ele>
        <time>2011-08-17T13:50:04Z</time>
      </trkpt>
      <trkpt lat="44.1442" lon="6.16642">
        <ele>1024</ele>
        <time>2011-08-17T13:50:21Z</time>
      </trkpt>
      <trkpt lat="44.14438" lon="6.1669">
        <ele>1025</ele>
        <time>2011-08-17T13:50:27Z</time>
      </trkpt>
      <trkpt lat="44.14435" lon="6.16713">
        <ele>1025</ele>
        <time>2011-08-17T13:50:31Z</time>
      </trkpt>
      <trkpt lat="44.14425" lon="6.16725">
        <ele>1023</ele>
        <time>2011-08-17T13:50:34Z</time>
      </trkpt>
      <trkpt lat="44.14419" lon="6.1675">
        <ele>1017</ele>
        <time>2011-08-17T13:50:39Z</time>
      </trkpt>
      <trkpt lat="44.14403" lon="6.16803">
        <ele>1015</ele>
        <time>2011-08-17T13:50:48Z</time>
      </trkpt>
      <trkpt lat="44.14371" lon="6.16844">
        <ele>1019</ele>
        <time>2011-08-17T13:50:59Z</time>
      </trkpt>
      <trkpt lat="44.1434" lon="6.16873">
        <ele>1019</ele>
        <time>2011-08-17T13:51:10Z</time>
      </trkpt>
      <trkpt lat="44.14302" lon="6.16896">
        <ele>1013</ele>
        <time>2011-08-17T13:51:23Z</time>
      </trkpt>
      <trkpt lat="44.1429" lon="6.16915">
        <ele>1013</ele>
        <time>2011-08-17T13:51:30Z</time>
      </trkpt>
      <trkpt lat="44.14287" lon="6.16952">
        <ele>1019</ele>
        <time>2011-08-17T13:51:35Z</time>
      </trkpt>
      <trkpt lat="44.14275" lon="6.16977">
        <ele>1019</ele>
        <time>2011-08-17T13:51:39Z</time>
      </trkpt>
      <trkpt lat="44.14244" lon="6.17024">
        <ele>1014</ele>
        <time>2011-08-17T13:51:49Z</time>
      </trkpt>
      <trkpt lat="44.1424" lon="6.17035">
        <ele>1014</ele>
        <time>2011-08-17T13:51:51Z</time>
      </trkpt>
      <trkpt lat="44.14195" lon="6.17078">
        <ele>1012</ele>
        <time>2011-08-17T13:52:01Z</time>
      </trkpt>
      <trkpt lat="44.14162" lon="6.17091">
        <ele>1011</ele>
        <time>2011-08-17T13:52:06Z</time>
      </trkpt>
      <trkpt lat="44.14126" lon="6.17115">
        <ele>1014</ele>
        <time>2011-08-17T13:52:14Z</time>
      </trkpt>
      <trkpt lat="44.14101" lon="6.17138">
        <ele>1016</ele>
        <time>2011-08-17T13:52:21Z</time>
      </trkpt>
      <trkpt lat="44.14059" lon="6.17139">
        <ele>1016</ele>
        <time>2011-08-17T13:52:32Z</time>
      </trkpt>
      <trkpt lat="44.1404" lon="6.17143">
        <ele>1016</ele>
        <time>2011-08-17T13:52:37Z</time>
      </trkpt>
      <trkpt lat="44.14018" lon="6.17122">
        <ele>1015</ele>
        <time>2011-08-17T13:52:44Z</time>
      </trkpt>
      <trkpt lat="44.14015" lon="6.17113">
        <ele>1014</ele>
        <time>2011-08-17T13:52:46Z</time>
      </trkpt>
      <trkpt lat="44.14" lon="6.17103">
        <ele>1016</ele>
        <time>2011-08-17T13:52:51Z</time>
      </trkpt>
      <trkpt lat="44.13962" lon="6.1707">
        <ele>1011</ele>
        <time>2011-08-17T13:53:04Z</time>
      </trkpt>
      <trkpt lat="44.13927" lon="6.1707">
        <ele>1014</ele>
        <time>2011-08-17T13:53:22Z</time>
      </trkpt>
      <trkpt lat="44.13899" lon="6.17098">
        <ele>1024</ele>
        <time>2011-08-17T13:53:38Z</time>
      </trkpt>
      <trkpt lat="44.1385" lon="6.17097">
        <ele>1026</ele>
        <time>2011-08-17T13:53:59Z</time>
      </trkpt>
      <trkpt lat="44.13823" lon="6.17082">
        <ele>1023</ele>
        <time>2011-08-17T13:54:05Z</time>
      </trkpt>
      <trkpt lat="44.138" lon="6.17056">
        <ele>1022</ele>
        <time>2011-08-17T13:54:10Z</time>
      </trkpt>
      <trkpt lat="44.13776" lon="6.17036">
        <ele>1022</ele>
        <time>2011-08-17T13:54:15Z</time>
      </trkpt>
      <trkpt lat="44.13718" lon="6.17014">
        <ele>1026</ele>
        <time>2011-08-17T13:54:27Z</time>
      </trkpt>
      <trkpt lat="44.13706" lon="6.17011">
        <ele>1027</ele>
        <time>2011-08-17T13:54:30Z</time>
      </trkpt>
      <trkpt lat="44.13645" lon="6.16989">
        <ele>1022</ele>
        <time>2011-08-17T13:54:44Z</time>
      </trkpt>
      <trkpt lat="44.13603" lon="6.16977">
        <ele>1023</ele>
        <time>2011-08-17T13:54:56Z</time>
      </trkpt>
      <trkpt lat="44.13544" lon="6.16954">
        <ele>1027</ele>
        <time>2011-08-17T13:55:15Z</time>
      </trkpt>
      <trkpt lat="44.13533" lon="6.16949">
        <ele>1028</ele>
        <time>2011-08-17T13:55:18Z</time>
      </trkpt>
      <trkpt lat="44.13519" lon="6.16936">
        <ele>1027</ele>
        <time>2011-08-17T13:55:22Z</time>
      </trkpt>
      <trkpt lat="44.13511" lon="6.16925">
        <ele>1027</ele>
        <time>2011-08-17T13:55:25Z</time>
      </trkpt>
      <trkpt lat="44.13485" lon="6.169">
        <ele>1023</ele>
        <time>2011-08-17T13:55:31Z</time>
      </trkpt>
      <trkpt lat="44.13457" lon="6.16899">
        <ele>1022</ele>
        <time>2011-08-17T13:55:36Z</time>
      </trkpt>
      <trkpt lat="44.13422" lon="6.16915">
        <ele>1025</ele>
        <time>2011-08-17T13:55:44Z</time>
      </trkpt>
      <trkpt lat="44.13383" lon="6.16929">
        <ele>1032</ele>
        <time>2011-08-17T13:55:56Z</time>
      </trkpt>
      <trkpt lat="44.13334" lon="6.16934">
        <ele>1033</ele>
        <time>2011-08-17T13:56:14Z</time>
      </trkpt>
      <trkpt lat="44.133" lon="6.16939">
        <ele>1037</ele>
        <time>2011-08-17T13:56:31Z</time>
      </trkpt>
      <trkpt lat="44.13256" lon="6.1696">
        <ele>1038</ele>
        <time>2011-08-17T13:56:54Z</time>
      </trkpt>
      <trkpt lat="44.13215" lon="6.16978">
        <ele>1040</ele>
        <time>2011-08-17T13:57:14Z</time>
      </trkpt>
      <trkpt lat="44.13188" lon="6.17015">
        <ele>1046</ele>
        <time>2011-08-17T13:57:30Z</time>
      </trkpt>
      <trkpt lat="44.13177" lon="6.17011">
        <ele>1046</ele>
        <time>2011-08-17T13:57:35Z</time>
      </trkpt>
      <trkpt lat="44.13145" lon="6.16947">
        <ele>1046</ele>
        <time>2011-08-17T13:57:56Z</time>
      </trkpt>
      <trkpt lat="44.13132" lon="6.16878">
        <ele>1043</ele>
        <time>2011-08-17T13:58:16Z</time>
      </trkpt>
      <trkpt lat="44.13118" lon="6.16817">
        <ele>1040</ele>
        <time>2011-08-17T13:58:34Z</time>
      </trkpt>
      <trkpt lat="44.13099" lon="6.16773">
        <ele>1040</ele>
        <time>2011-08-17T13:58:46Z</time>
      </trkpt>
      <trkpt lat="44.13087" lon="6.16772">
        <ele>1040</ele>
        <time>2011-08-17T13:58:51Z</time>
      </trkpt>
      <trkpt lat="44.13052" lon="6.16816">
        <ele>1040</ele>
        <time>2011-08-17T13:59:08Z</time>
      </trkpt>
      <trkpt lat="44.13031" lon="6.16861">
        <ele>1050</ele>
        <time>2011-08-17T13:59:21Z</time>
      </trkpt>
      <trkpt lat="44.12991" lon="6.16883">
        <ele>1050</ele>
        <time>2011-08-17T13:59:35Z</time>
      </trkpt>
      <trkpt lat="44.12928" lon="6.16895">
        <ele>1050</ele>
        <time>2011-08-17T13:59:56Z</time>
      </trkpt>
      <trkpt lat="44.1288" lon="6.16904">
        <ele>1047</ele>
        <time>2011-08-17T14:00:13Z</time>
      </trkpt>
      <trkpt lat="44.12816" lon="6.16922">
        <ele>1065</ele>
        <time>2011-08-17T14:00:31Z</time>
      </trkpt>
      <trkpt lat="44.12789" lon="6.16891">
        <ele>1055</ele>
        <time>2011-08-17T14:00:42Z</time>
      </trkpt>
      <trkpt lat="44.12748" lon="6.16845">
        <ele>1058</ele>
        <time>2011-08-17T14:01:01Z</time>
      </trkpt>
      <trkpt lat="44.12703" lon="6.16796">
        <ele>1054</ele>
        <time>2011-08-17T14:01:22Z</time>
      </trkpt>
      <trkpt lat="44.12697" lon="6.16788">
        <ele>1054</ele>
        <time>2011-08-17T14:01:26Z</time>
      </trkpt>
      <trkpt lat="44.12693" lon="6.16797">
        <ele>1055</ele>
        <time>2011-08-17T14:01:32Z</time>
      </trkpt>
      <trkpt lat="44.12703" lon="6.1684">
        <ele>1061</ele>
        <time>2011-08-17T14:01:53Z</time>
      </trkpt>
      <trkpt lat="44.12704" lon="6.16848">
        <ele>1061</ele>
        <time>2011-08-17T14:02:05Z</time>
      </trkpt>
      <trkpt lat="44.12706" lon="6.16866">
        <ele>1062</ele>
        <time>2011-08-17T14:02:21Z</time>
      </trkpt>
      <trkpt lat="44.1271" lon="6.16888">
        <ele>1064</ele>
        <time>2011-08-17T14:02:41Z</time>
      </trkpt>
      <trkpt lat="44.12714" lon="6.16909">
        <ele>1065</ele>
        <time>2011-08-17T14:03:01Z</time>
      </trkpt>
      <trkpt lat="44.12726" lon="6.16939">
        <ele>1075</ele>
        <time>2011-08-17T14:03:26Z</time>
      </trkpt>
      <trkpt lat="44.12736" lon="6.1695">
        <ele>1076</ele>
        <time>2011-08-17T14:03:42Z</time>
      </trkpt>
      <trkpt lat="44.12742" lon="6.1696">
        <ele>1077</ele>
        <time>2011-08-17T14:03:58Z</time>
      </trkpt>
      <trkpt lat="44.12768" lon="6.16993">
        <ele>1080</ele>
        <time>2011-08-17T14:04:19Z</time>
      </trkpt>
      <trkpt lat="44.12771" lon="6.17032">
        <ele>1087</ele>
        <time>2011-08-17T14:04:36Z</time>
      </trkpt>
      <trkpt lat="44.12786" lon="6.1708">
        <ele>1089</ele>
        <time>2011-08-17T14:04:51Z</time>
      </trkpt>
      <trkpt lat="44.12824" lon="6.17145">
        <ele>1090</ele>
        <time>2011-08-17T14:05:10Z</time>
      </trkpt>
      <trkpt lat="44.12859" lon="6.17189">
        <ele>1095</ele>
        <time>2011-08-17T14:05:26Z</time>
      </trkpt>
      <trkpt lat="44.12884" lon="6.1725">
        <ele>1089</ele>
        <time>2011-08-17T14:05:39Z</time>
      </trkpt>
      <trkpt lat="44.12896" lon="6.17302">
        <ele>1088</ele>
        <time>2011-08-17T14:05:47Z</time>
      </trkpt>
      <trkpt lat="44.12934" lon="6.17374">
        <ele>1090</ele>
        <time>2011-08-17T14:05:58Z</time>
      </trkpt>
      <trkpt lat="44.12944" lon="6.17438">
        <ele>1088</ele>
        <time>2011-08-17T14:06:08Z</time>
      </trkpt>
      <trkpt lat="44.12951" lon="6.17498">
        <ele>1087</ele>
        <time>2011-08-17T14:06:17Z</time>
      </trkpt>
      <trkpt lat="44.12951" lon="6.17524">
        <ele>1088</ele>
        <time>2011-08-17T14:06:21Z</time>
      </trkpt>
      <trkpt lat="44.1294" lon="6.17567">
        <ele>1086</ele>
        <time>2011-08-17T14:06:27Z</time>
      </trkpt>
      <trkpt lat="44.12939" lon="6.17594">
        <ele>1088</ele>
        <time>2011-08-17T14:06:31Z</time>
      </trkpt>
      <trkpt lat="44.12944" lon="6.1765">
        <ele>1091</ele>
        <time>2011-08-17T14:06:40Z</time>
      </trkpt>
      <trkpt lat="44.12947" lon="6.17671">
        <ele>1097</ele>
        <time>2011-08-17T14:06:44Z</time>
      </trkpt>
      <trkpt lat="44.12931" lon="6.17713">
        <ele>1098</ele>
        <time>2011-08-17T14:06:58Z</time>
      </trkpt>
      <trkpt lat="44.12927" lon="6.17759">
        <ele>1099</ele>
        <time>2011-08-17T14:07:13Z</time>
      </trkpt>
      <trkpt lat="44.1292" lon="6.17804">
        <ele>1105</ele>
        <time>2011-08-17T14:07:29Z</time>
      </trkpt>
      <trkpt lat="44.12921" lon="6.17832">
        <ele>1101</ele>
        <time>2011-08-17T14:07:42Z</time>
      </trkpt>
      <trkpt lat="44.12918" lon="6.17874">
        <ele>1107</ele>
        <time>2011-08-17T14:08:03Z</time>
      </trkpt>
      <trkpt lat="44.12901" lon="6.17907">
        <ele>1090</ele>
        <time>2011-08-17T14:08:12Z</time>
      </trkpt>
      <trkpt lat="44.12875" lon="6.17941">
        <ele>1082</ele>
        <time>2011-08-17T14:08:22Z</time>
      </trkpt>
      <trkpt lat="44.12868" lon="6.17957">
        <ele>1081</ele>
        <time>2011-08-17T14:08:27Z</time>
      </trkpt>
      <trkpt lat="44.12857" lon="6.17967">
        <ele>1079</ele>
        <time>2011-08-17T14:08:31Z</time>
      </trkpt>
      <trkpt lat="44.12854" lon="6.17975">
        <ele>1078</ele>
        <time>2011-08-17T14:08:36Z</time>
      </trkpt>
      <trkpt lat="44.12883" lon="6.18003">
        <ele>1077</ele>
        <time>2011-08-17T14:08:47Z</time>
      </trkpt>
      <trkpt lat="44.12897" lon="6.18018">
        <ele>1079</ele>
        <time>2011-08-17T14:08:51Z</time>
      </trkpt>
      <trkpt lat="44.12904" lon="6.18028">
        <ele>1078</ele>
        <time>2011-08-17T14:08:53Z</time>
      </trkpt>
      <trkpt lat="44.12914" lon="6.18039">
        <ele>1077</ele>
        <time>2011-08-17T14:08:56Z</time>
      </trkpt>
      <trkpt lat="44.1292" lon="6.18061">
        <ele>1088</ele>
        <time>2011-08-17T14:09:01Z</time>
      </trkpt>
      <trkpt lat="44.1291" lon="6.18083">
        <ele>1072</ele>
        <time>2011-08-17T14:09:09Z</time>
      </trkpt>
      <trkpt lat="44.12917" lon="6.18104">
        <ele>1067</ele>
        <time>2011-08-17T14:09:14Z</time>
      </trkpt>
      <trkpt lat="44.12912" lon="6.1811">
        <ele>1066</ele>
        <time>2011-08-17T14:09:18Z</time>
      </trkpt>
      <trkpt lat="44.12906" lon="6.1812">
        <ele>1064</ele>
        <time>2011-08-17T14:09:23Z</time>
      </trkpt>
      <trkpt lat="44.12901" lon="6.18134">
        <ele>1062</ele>
        <time>2011-08-17T14:09:27Z</time>
      </trkpt>
      <trkpt lat="44.12894" lon="6.18181">
        <ele>1054</ele>
        <time>2011-08-17T14:09:38Z</time>
      </trkpt>
      <trkpt lat="44.12894" lon="6.18196">
        <ele>1053</ele>
        <time>2011-08-17T14:09:41Z</time>
      </trkpt>
      <trkpt lat="44.12883" lon="6.18241">
        <ele>1049</ele>
        <time>2011-08-17T14:09:52Z</time>
      </trkpt>
      <trkpt lat="44.12881" lon="6.18249">
        <ele>1049</ele>
        <time>2011-08-17T14:09:54Z</time>
      </trkpt>
      <trkpt lat="44.12881" lon="6.18276">
        <ele>1041</ele>
        <time>2011-08-17T14:10:02Z</time>
      </trkpt>
      <trkpt lat="44.12892" lon="6.18303">
        <ele>1041</ele>
        <time>2011-08-17T14:10:09Z</time>
      </trkpt>
      <trkpt lat="44.12899" lon="6.18347">
        <ele>1036</ele>
        <time>2011-08-17T14:10:16Z</time>
      </trkpt>
      <trkpt lat="44.12906" lon="6.18366">
        <ele>1034</ele>
        <time>2011-08-17T14:10:20Z</time>
      </trkpt>
      <trkpt lat="44.12918" lon="6.18406">
        <ele>1038</ele>
        <time>2011-08-17T14:10:29Z</time>
      </trkpt>
      <trkpt lat="44.12917" lon="6.18445">
        <ele>1042</ele>
        <time>2011-08-17T14:10:38Z</time>
      </trkpt>
      <trkpt lat="44.12911" lon="6.18448">
        <ele>1034</ele>
        <time>2011-08-17T14:10:42Z</time>
      </trkpt>
      <trkpt lat="44.12902" lon="6.18442">
        <ele>1033</ele>
        <time>2011-08-17T14:10:53Z</time>
      </trkpt>
      <trkpt lat="44.12896" lon="6.1843">
        <ele>1032</ele>
        <time>2011-08-17T14:11:02Z</time>
      </trkpt>
      <trkpt lat="44.12886" lon="6.18424">
        <ele>1031</ele>
        <time>2011-08-17T14:11:15Z</time>
      </trkpt>
      <trkpt lat="44.12867" lon="6.18416">
        <ele>1026</ele>
        <time>2011-08-17T14:11:29Z</time>
      </trkpt>
      <trkpt lat="44.12858" lon="6.1841">
        <ele>1025</ele>
        <time>2011-08-17T14:11:32Z</time>
      </trkpt>
      <trkpt lat="44.12838" lon="6.18407">
        <ele>1021</ele>
        <time>2011-08-17T14:11:40Z</time>
      </trkpt>
      <trkpt lat="44.12819" lon="6.18412">
        <ele>1013</ele>
        <time>2011-08-17T14:11:49Z</time>
      </trkpt>
      <trkpt lat="44.12813" lon="6.18414">
        <ele>1012</ele>
        <time>2011-08-17T14:12:01Z</time>
      </trkpt>
      <trkpt lat="44.12804" lon="6.18423">
        <ele>1020</ele>
        <time>2011-08-17T14:12:19Z</time>
      </trkpt>
      <trkpt lat="44.12795" lon="6.18428">
        <ele>1020</ele>
        <time>2011-08-17T14:12:34Z</time>
      </trkpt>
      <trkpt lat="44.12793" lon="6.18429">
        <ele>1020</ele>
        <time>2011-08-17T14:13:29Z</time>
      </trkpt>
      <trkpt lat="44.12785" lon="6.18436">
        <ele>1020</ele>
        <time>2011-08-17T14:13:41Z</time>
      </trkpt>
      <trkpt lat="44.12773" lon="6.18449">
        <ele>1021</ele>
        <time>2011-08-17T14:13:55Z</time>
      </trkpt>
      <trkpt lat="44.12772" lon="6.1845">
        <ele>1021</ele>
        <time>2011-08-17T14:13:56Z</time>
      </trkpt>
      <trkpt lat="44.12766" lon="6.18458">
        <ele>1022</ele>
        <time>2011-08-17T14:14:04Z</time>
      </trkpt>
      <trkpt lat="44.12756" lon="6.18463">
        <ele>1023</ele>
        <time>2011-08-17T14:14:22Z</time>
      </trkpt>
      <trkpt lat="44.12755" lon="6.18462">
        <ele>1023</ele>
        <time>2011-08-17T14:14:24Z</time>
      </trkpt>
      <trkpt lat="44.12745" lon="6.18461">
        <ele>1016</ele>
        <time>2011-08-17T14:14:31Z</time>
      </trkpt>
      <trkpt lat="44.12737" lon="6.18457">
        <ele>1015</ele>
        <time>2011-08-17T14:14:34Z</time>
      </trkpt>
      <trkpt lat="44.12722" lon="6.18461">
        <ele>1015</ele>
        <time>2011-08-17T14:14:40Z</time>
      </trkpt>
      <trkpt lat="44.12703" lon="6.18481">
        <ele>1018</ele>
        <time>2011-08-17T14:14:53Z</time>
      </trkpt>
      <trkpt lat="44.12677" lon="6.18478">
        <ele>1018</ele>
        <time>2011-08-17T14:15:04Z</time>
      </trkpt>
      <trkpt lat="44.12667" lon="6.18477">
        <ele>1017</ele>
        <time>2011-08-17T14:15:08Z</time>
      </trkpt>
      <trkpt lat="44.12648" lon="6.18492">
        <ele>1018</ele>
        <time>2011-08-17T14:15:19Z</time>
      </trkpt>
      <trkpt lat="44.12629" lon="6.18495">
        <ele>1017</ele>
        <time>2011-08-17T14:15:34Z</time>
      </trkpt>
      <trkpt lat="44.1262" lon="6.18501">
        <ele>1038</ele>
        <time>2011-08-17T14:15:52Z</time>
      </trkpt>
      <trkpt lat="44.12617" lon="6.18501">
        <ele>1038</ele>
        <time>2011-08-17T14:15:55Z</time>
      </trkpt>
      <trkpt lat="44.1261" lon="6.18498">
        <ele>1018</ele>
        <time>2011-08-17T14:16:06Z</time>
      </trkpt>
      <trkpt lat="44.12592" lon="6.18498">
        <ele>1023</ele>
        <time>2011-08-17T14:16:17Z</time>
      </trkpt>
      <trkpt lat="44.12585" lon="6.18498">
        <ele>1025</ele>
        <time>2011-08-17T14:16:21Z</time>
      </trkpt>
      <trkpt lat="44.12581" lon="6.185">
        <ele>1026</ele>
        <time>2011-08-17T14:16:24Z</time>
      </trkpt>
      <trkpt lat="44.12547" lon="6.18493">
        <ele>1023</ele>
        <time>2011-08-17T14:16:42Z</time>
      </trkpt>
      <trkpt lat="44.12524" lon="6.18491">
        <ele>1025</ele>
        <time>2011-08-17T14:16:55Z</time>
      </trkpt>
      <trkpt lat="44.12515" lon="6.18492">
        <ele>1026</ele>
        <time>2011-08-17T14:17:11Z</time>
      </trkpt>
      <trkpt lat="44.12514" lon="6.18492">
        <ele>1026</ele>
        <time>2011-08-17T14:23:11Z</time>
      </trkpt>
      <trkpt lat="44.12513" lon="6.18493">
        <ele>1026</ele>
        <time>2011-08-17T14:23:53Z</time>
      </trkpt>
      <trkpt lat="44.12493" lon="6.18498">
        <ele>1026</ele>
        <time>2011-08-17T14:32:14Z</time>
      </trkpt>
      <trkpt lat="44.1249" lon="6.18498">
        <ele>1025</ele>
        <time>2011-08-17T14:32:15Z</time>
      </trkpt>
      <trkpt lat="44.12483" lon="6.18508">
        <ele>1026</ele>
        <time>2011-08-17T14:32:19Z</time>
      </trkpt>
      <trkpt lat="44.12474" lon="6.18523">
        <ele>1024</ele>
        <time>2011-08-17T14:32:24Z</time>
      </trkpt>
      <trkpt lat="44.12456" lon="6.18569">
        <ele>1023</ele>
        <time>2011-08-17T14:32:35Z</time>
      </trkpt>
      <trkpt lat="44.12428" lon="6.18602">
        <ele>1024</ele>
        <time>2011-08-17T14:32:45Z</time>
      </trkpt>
      <trkpt lat="44.12425" lon="6.18606">
        <ele>1024</ele>
        <time>2011-08-17T14:32:46Z</time>
      </trkpt>
      <trkpt lat="44.12417" lon="6.18626">
        <ele>1028</ele>
        <time>2011-08-17T14:32:50Z</time>
      </trkpt>
      <trkpt lat="44.12398" lon="6.1867">
        <ele>1008</ele>
        <time>2011-08-17T14:33:03Z</time>
      </trkpt>
      <trkpt lat="44.12386" lon="6.187">
        <ele>1001</ele>
        <time>2011-08-17T14:33:12Z</time>
      </trkpt>
      <trkpt lat="44.12379" lon="6.18714">
        <ele>999</ele>
        <time>2011-08-17T14:33:21Z</time>
      </trkpt>
      <trkpt lat="44.12376" lon="6.18733">
        <ele>998</ele>
        <time>2011-08-17T14:33:28Z</time>
      </trkpt>
      <trkpt lat="44.12379" lon="6.18747">
        <ele>999</ele>
        <time>2011-08-17T14:33:31Z</time>
      </trkpt>
      <trkpt lat="44.12377" lon="6.18763">
        <ele>998</ele>
        <time>2011-08-17T14:33:35Z</time>
      </trkpt>
      <trkpt lat="44.1238" lon="6.18771">
        <ele>999</ele>
        <time>2011-08-17T14:33:38Z</time>
      </trkpt>
      <trkpt lat="44.1238" lon="6.18785">
        <ele>998</ele>
        <time>2011-08-17T14:33:50Z</time>
      </trkpt>
      <trkpt lat="44.12383" lon="6.18789">
        <ele>999</ele>
        <time>2011-08-17T14:33:52Z</time>
      </trkpt>
      <trkpt lat="44.1239" lon="6.18802">
        <ele>1001</ele>
        <time>2011-08-17T14:33:57Z</time>
      </trkpt>
      <trkpt lat="44.12402" lon="6.18823">
        <ele>1005</ele>
        <time>2011-08-17T14:34:05Z</time>
      </trkpt>
      <trkpt lat="44.12401" lon="6.18832">
        <ele>1006</ele>
        <time>2011-08-17T14:34:15Z</time>
      </trkpt>
      <trkpt lat="44.124" lon="6.18833">
        <ele>1006</ele>
        <time>2011-08-17T14:34:18Z</time>
      </trkpt>
      <trkpt lat="44.12387" lon="6.18832">
        <ele>1001</ele>
        <time>2011-08-17T14:34:34Z</time>
      </trkpt>
      <trkpt lat="44.12371" lon="6.18835">
        <ele>1006</ele>
        <time>2011-08-17T14:34:45Z</time>
      </trkpt>
      <trkpt lat="44.12369" lon="6.18836">
        <ele>1006</ele>
        <time>2011-08-17T14:34:46Z</time>
      </trkpt>
      <trkpt lat="44.12364" lon="6.18843">
        <ele>1005</ele>
        <time>2011-08-17T14:34:52Z</time>
      </trkpt>
      <trkpt lat="44.12356" lon="6.18841">
        <ele>1001</ele>
        <time>2011-08-17T14:35:01Z</time>
      </trkpt>
      <trkpt lat="44.12336" lon="6.18839">
        <ele>988</ele>
        <time>2011-08-17T14:35:11Z</time>
      </trkpt>
      <trkpt lat="44.12326" lon="6.1884">
        <ele>982</ele>
        <time>2011-08-17T14:35:14Z</time>
      </trkpt>
      <trkpt lat="44.12303" lon="6.18866">
        <ele>983</ele>
        <time>2011-08-17T14:35:24Z</time>
      </trkpt>
      <trkpt lat="44.12298" lon="6.18876">
        <ele>984</ele>
        <time>2011-08-17T14:35:28Z</time>
      </trkpt>
      <trkpt lat="44.12293" lon="6.18882">
        <ele>984</ele>
        <time>2011-08-17T14:35:40Z</time>
      </trkpt>
      <trkpt lat="44.12288" lon="6.18884">
        <ele>983</ele>
        <time>2011-08-17T14:35:55Z</time>
      </trkpt>
      <trkpt lat="44.12287" lon="6.18885">
        <ele>983</ele>
        <time>2011-08-17T14:35:59Z</time>
      </trkpt>
      <trkpt lat="44.12278" lon="6.18895">
        <ele>983</ele>
        <time>2011-08-17T14:36:11Z</time>
      </trkpt>
      <trkpt lat="44.12264" lon="6.18929">
        <ele>988</ele>
        <time>2011-08-17T14:36:23Z</time>
      </trkpt>
      <trkpt lat="44.1226" lon="6.18951">
        <ele>991</ele>
        <time>2011-08-17T14:36:29Z</time>
      </trkpt>
      <trkpt lat="44.12257" lon="6.19006">
        <ele>985</ele>
        <time>2011-08-17T14:36:41Z</time>
      </trkpt>
      <trkpt lat="44.1227" lon="6.19041">
        <ele>995</ele>
        <time>2011-08-17T14:36:52Z</time>
      </trkpt>
      <trkpt lat="44.12267" lon="6.19049">
        <ele>995</ele>
        <time>2011-08-17T14:37:05Z</time>
      </trkpt>
      <trkpt lat="44.12264" lon="6.19055">
        <ele>995</ele>
        <time>2011-08-17T14:37:17Z</time>
      </trkpt>
      <trkpt lat="44.12262" lon="6.19062">
        <ele>995</ele>
        <time>2011-08-17T14:37:31Z</time>
      </trkpt>
      <trkpt lat="44.12257" lon="6.19061">
        <ele>994</ele>
        <time>2011-08-17T14:37:44Z</time>
      </trkpt>
      <trkpt lat="44.12253" lon="6.19056">
        <ele>994</ele>
        <time>2011-08-17T14:37:54Z</time>
      </trkpt>
      <trkpt lat="44.12251" lon="6.19053">
        <ele>994</ele>
        <time>2011-08-17T14:37:57Z</time>
      </trkpt>
      <trkpt lat="44.12248" lon="6.19044">
        <ele>981</ele>
        <time>2011-08-17T14:38:02Z</time>
      </trkpt>
      <trkpt lat="44.12243" lon="6.19038">
        <ele>980</ele>
        <time>2011-08-17T14:38:06Z</time>
      </trkpt>
      <trkpt lat="44.12239" lon="6.19036">
        <ele>980</ele>
        <time>2011-08-17T14:38:08Z</time>
      </trkpt>
      <trkpt lat="44.1223" lon="6.19036">
        <ele>979</ele>
        <time>2011-08-17T14:38:11Z</time>
      </trkpt>
      <trkpt lat="44.12202" lon="6.19033">
        <ele>977</ele>
        <time>2011-08-17T14:38:22Z</time>
      </trkpt>
      <trkpt lat="44.12179" lon="6.19033">
        <ele>975</ele>
        <time>2011-08-17T14:38:30Z</time>
      </trkpt>
      <trkpt lat="44.12166" lon="6.19048">
        <ele>977</ele>
        <time>2011-08-17T14:38:40Z</time>
      </trkpt>
      <trkpt lat="44.1216" lon="6.19059">
        <ele>980</ele>
        <time>2011-08-17T14:39:01Z</time>
      </trkpt>
      <trkpt lat="44.12151" lon="6.19073">
        <ele>982</ele>
        <time>2011-08-17T14:39:18Z</time>
      </trkpt>
      <trkpt lat="44.12145" lon="6.19078">
        <ele>982</ele>
        <time>2011-08-17T14:39:31Z</time>
      </trkpt>
      <trkpt lat="44.12137" lon="6.1909">
        <ele>999</ele>
        <time>2011-08-17T14:39:44Z</time>
      </trkpt>
      <trkpt lat="44.12137" lon="6.1909">
        <ele>999</ele>
        <time>2011-08-17T14:39:46Z</time>
      </trkpt>
      <trkpt lat="44.12126" lon="6.19098">
        <ele>1001</ele>
        <time>2011-08-17T14:39:56Z</time>
      </trkpt>
      <trkpt lat="44.12118" lon="6.19117">
        <ele>1003</ele>
        <time>2011-08-17T14:40:12Z</time>
      </trkpt>
      <trkpt lat="44.12116" lon="6.19119">
        <ele>1004</ele>
        <time>2011-08-17T14:40:14Z</time>
      </trkpt>
      <trkpt lat="44.12105" lon="6.19126">
        <ele>1005</ele>
        <time>2011-08-17T14:40:28Z</time>
      </trkpt>
      <trkpt lat="44.12101" lon="6.19108">
        <ele>1000</ele>
        <time>2011-08-17T14:40:46Z</time>
      </trkpt>
      <trkpt lat="44.12101" lon="6.19097">
        <ele>998</ele>
        <time>2011-08-17T14:40:58Z</time>
      </trkpt>
      <trkpt lat="44.12101" lon="6.19078">
        <ele>983</ele>
        <time>2011-08-17T14:41:22Z</time>
      </trkpt>
      <trkpt lat="44.12093" lon="6.19057">
        <ele>980</ele>
        <time>2011-08-17T14:41:30Z</time>
      </trkpt>
      <trkpt lat="44.12092" lon="6.19055">
        <ele>980</ele>
        <time>2011-08-17T14:41:31Z</time>
      </trkpt>
      <trkpt lat="44.12068" lon="6.19058">
        <ele>982</ele>
        <time>2011-08-17T14:41:43Z</time>
      </trkpt>
      <trkpt lat="44.12037" lon="6.19053">
        <ele>980</ele>
        <time>2011-08-17T14:41:53Z</time>
      </trkpt>
      <trkpt lat="44.12011" lon="6.1905">
        <ele>980</ele>
        <time>2011-08-17T14:41:58Z</time>
      </trkpt>
      <trkpt lat="44.11984" lon="6.19057">
        <ele>976</ele>
        <time>2011-08-17T14:42:07Z</time>
      </trkpt>
      <trkpt lat="44.11944" lon="6.19061">
        <ele>973</ele>
        <time>2011-08-17T14:42:16Z</time>
      </trkpt>
      <trkpt lat="44.11933" lon="6.19061">
        <ele>972</ele>
        <time>2011-08-17T14:42:18Z</time>
      </trkpt>
      <trkpt lat="44.11925" lon="6.19068">
        <ele>972</ele>
        <time>2011-08-17T14:42:22Z</time>
      </trkpt>
      <trkpt lat="44.11919" lon="6.19074">
        <ele>972</ele>
        <time>2011-08-17T14:42:24Z</time>
      </trkpt>
      <trkpt lat="44.1191" lon="6.19081">
        <ele>969</ele>
        <time>2011-08-17T14:42:28Z</time>
      </trkpt>
      <trkpt lat="44.11897" lon="6.19084">
        <ele>975</ele>
        <time>2011-08-17T14:42:32Z</time>
      </trkpt>
      <trkpt lat="44.11894" lon="6.19082">
        <ele>964</ele>
        <time>2011-08-17T14:42:36Z</time>
      </trkpt>
      <trkpt lat="44.1189" lon="6.19079">
        <ele>963</ele>
        <time>2011-08-17T14:42:40Z</time>
      </trkpt>
      <trkpt lat="44.11885" lon="6.19082">
        <ele>962</ele>
        <time>2011-08-17T14:42:43Z</time>
      </trkpt>
      <trkpt lat="44.11881" lon="6.19091">
        <ele>975</ele>
        <time>2011-08-17T14:42:48Z</time>
      </trkpt>
      <trkpt lat="44.11874" lon="6.19102">
        <ele>975</ele>
        <time>2011-08-17T14:42:53Z</time>
      </trkpt>
      <trkpt lat="44.11872" lon="6.19107">
        <ele>976</ele>
        <time>2011-08-17T14:42:55Z</time>
      </trkpt>
      <trkpt lat="44.11867" lon="6.19108">
        <ele>975</ele>
        <time>2011-08-17T14:42:59Z</time>
      </trkpt>
      <trkpt lat="44.11856" lon="6.19106">
        <ele>973</ele>
        <time>2011-08-17T14:43:10Z</time>
      </trkpt>
      <trkpt lat="44.11842" lon="6.19103">
        <ele>970</ele>
        <time>2011-08-17T14:43:29Z</time>
      </trkpt>
      <trkpt lat="44.11842" lon="6.19102">
        <ele>970</ele>
        <time>2011-08-17T14:43:30Z</time>
      </trkpt>
      <trkpt lat="44.11838" lon="6.19101">
        <ele>969</ele>
        <time>2011-08-17T14:43:42Z</time>
      </trkpt>
      <trkpt lat="44.11835" lon="6.19094">
        <ele>965</ele>
        <time>2011-08-17T14:43:57Z</time>
      </trkpt>
      <trkpt lat="44.11835" lon="6.19094">
        <ele>965</ele>
        <time>2011-08-17T14:44:00Z</time>
      </trkpt>
      <trkpt lat="44.11829" lon="6.19091">
        <ele>965</ele>
        <time>2011-08-17T14:44:05Z</time>
      </trkpt>
      <trkpt lat="44.11825" lon="6.19083">
        <ele>959</ele>
        <time>2011-08-17T14:44:09Z</time>
      </trkpt>
      <trkpt lat="44.11806" lon="6.19038">
        <ele>959</ele>
        <time>2011-08-17T14:44:25Z</time>
      </trkpt>
      <trkpt lat="44.11803" lon="6.19008">
        <ele>956</ele>
        <time>2011-08-17T14:44:32Z</time>
      </trkpt>
      <trkpt lat="44.11787" lon="6.18975">
        <ele>946</ele>
        <time>2011-08-17T14:44:41Z</time>
      </trkpt>
      <trkpt lat="44.11781" lon="6.18965">
        <ele>945</ele>
        <time>2011-08-17T14:44:44Z</time>
      </trkpt>
      <trkpt lat="44.11768" lon="6.18959">
        <ele>946</ele>
        <time>2011-08-17T14:44:49Z</time>
      </trkpt>
      <trkpt lat="44.11756" lon="6.18963">
        <ele>947</ele>
        <time>2011-08-17T14:44:53Z</time>
      </trkpt>
      <trkpt lat="44.11741" lon="6.18953">
        <ele>954</ele>
        <time>2011-08-17T14:45:00Z</time>
      </trkpt>
      <trkpt lat="44.1173" lon="6.18953">
        <ele>955</ele>
        <time>2011-08-17T14:45:07Z</time>
      </trkpt>
      <trkpt lat="44.11692" lon="6.18952">
        <ele>958</ele>
        <time>2011-08-17T14:45:27Z</time>
      </trkpt>
      <trkpt lat="44.11659" lon="6.18933">
        <ele>959</ele>
        <time>2011-08-17T14:45:44Z</time>
      </trkpt>
      <trkpt lat="44.1162" lon="6.18908">
        <ele>948</ele>
        <time>2011-08-17T14:46:01Z</time>
      </trkpt>
      <trkpt lat="44.11572" lon="6.18895">
        <ele>950</ele>
        <time>2011-08-17T14:46:16Z</time>
      </trkpt>
      <trkpt lat="44.11518" lon="6.18899">
        <ele>949</ele>
        <time>2011-08-17T14:46:33Z</time>
      </trkpt>
      <trkpt lat="44.115" lon="6.18914">
        <ele>953</ele>
        <time>2011-08-17T14:46:44Z</time>
      </trkpt>
      <trkpt lat="44.11483" lon="6.18942">
        <ele>958</ele>
        <time>2011-08-17T14:47:01Z</time>
      </trkpt>
      <trkpt lat="44.11464" lon="6.18978">
        <ele>961</ele>
        <time>2011-08-17T14:47:20Z</time>
      </trkpt>
      <trkpt lat="44.11441" lon="6.19019">
        <ele>976</ele>
        <time>2011-08-17T14:47:41Z</time>
      </trkpt>
      <trkpt lat="44.11417" lon="6.19047">
        <ele>979</ele>
        <time>2011-08-17T14:47:56Z</time>
      </trkpt>
      <trkpt lat="44.11388" lon="6.19089">
        <ele>977</ele>
        <time>2011-08-17T14:48:16Z</time>
      </trkpt>
      <trkpt lat="44.11381" lon="6.19117">
        <ele>978</ele>
        <time>2011-08-17T14:48:23Z</time>
      </trkpt>
      <trkpt lat="44.11367" lon="6.19138">
        <ele>977</ele>
        <time>2011-08-17T14:48:28Z</time>
      </trkpt>
      <trkpt lat="44.11359" lon="6.19144">
        <ele>976</ele>
        <time>2011-08-17T14:48:30Z</time>
      </trkpt>
      <trkpt lat="44.11342" lon="6.19168">
        <ele>979</ele>
        <time>2011-08-17T14:48:38Z</time>
      </trkpt>
      <trkpt lat="44.11342" lon="6.1917">
        <ele>979</ele>
        <time>2011-08-17T14:49:05Z</time>
      </trkpt>
      <trkpt lat="44.11342" lon="6.19172">
        <ele>980</ele>
        <time>2011-08-17T14:49:07Z</time>
      </trkpt>
      <trkpt lat="44.11335" lon="6.19177">
        <ele>980</ele>
        <time>2011-08-17T14:49:16Z</time>
      </trkpt>
      <trkpt lat="44.11331" lon="6.19177">
        <ele>973</ele>
        <time>2011-08-17T14:49:19Z</time>
      </trkpt>
      <trkpt lat="44.11298" lon="6.19192">
        <ele>974</ele>
        <time>2011-08-17T14:49:31Z</time>
      </trkpt>
      <trkpt lat="44.11249" lon="6.19224">
        <ele>965</ele>
        <time>2011-08-17T14:49:46Z</time>
      </trkpt>
      <trkpt lat="44.11239" lon="6.19239">
        <ele>968</ele>
        <time>2011-08-17T14:49:49Z</time>
      </trkpt>
      <trkpt lat="44.11211" lon="6.19272">
        <ele>975</ele>
        <time>2011-08-17T14:49:56Z</time>
      </trkpt>
      <trkpt lat="44.11172" lon="6.19297">
        <ele>974</ele>
        <time>2011-08-17T14:50:07Z</time>
      </trkpt>
      <trkpt lat="44.1116" lon="6.19307">
        <ele>963</ele>
        <time>2011-08-17T14:50:10Z</time>
      </trkpt>
      <trkpt lat="44.11151" lon="6.19334">
        <ele>974</ele>
        <time>2011-08-17T14:50:16Z</time>
      </trkpt>
      <trkpt lat="44.11135" lon="6.19363">
        <ele>973</ele>
        <time>2011-08-17T14:50:28Z</time>
      </trkpt>
      <trkpt lat="44.11134" lon="6.19394">
        <ele>976</ele>
        <time>2011-08-17T14:50:39Z</time>
      </trkpt>
      <trkpt lat="44.1113" lon="6.19394">
        <ele>976</ele>
        <time>2011-08-17T14:50:43Z</time>
      </trkpt>
      <trkpt lat="44.11107" lon="6.19383">
        <ele>972</ele>
        <time>2011-08-17T14:50:57Z</time>
      </trkpt>
      <trkpt lat="44.11086" lon="6.19408">
        <ele>970</ele>
        <time>2011-08-17T14:51:13Z</time>
      </trkpt>
      <trkpt lat="44.11073" lon="6.19441">
        <ele>968</ele>
        <time>2011-08-17T14:51:25Z</time>
      </trkpt>
      <trkpt lat="44.1107" lon="6.19455">
        <ele>969</ele>
        <time>2011-08-17T14:51:30Z</time>
      </trkpt>
      <trkpt lat="44.11059" lon="6.19489">
        <ele>971</ele>
        <time>2011-08-17T14:51:42Z</time>
      </trkpt>
      <trkpt lat="44.11052" lon="6.19501">
        <ele>980</ele>
        <time>2011-08-17T14:51:54Z</time>
      </trkpt>
      <trkpt lat="44.11047" lon="6.19511">
        <ele>979</ele>
        <time>2011-08-17T14:52:08Z</time>
      </trkpt>
      <trkpt lat="44.11041" lon="6.19521">
        <ele>979</ele>
        <time>2011-08-17T14:52:24Z</time>
      </trkpt>
      <trkpt lat="44.11026" lon="6.19556">
        <ele>980</ele>
        <time>2011-08-17T14:52:39Z</time>
      </trkpt>
      <trkpt lat="44.11025" lon="6.19558">
        <ele>980</ele>
        <time>2011-08-17T14:52:40Z</time>
      </trkpt>
      <trkpt lat="44.11007" lon="6.19585">
        <ele>980</ele>
        <time>2011-08-17T14:52:50Z</time>
      </trkpt>
      <trkpt lat="44.10998" lon="6.19588">
        <ele>973</ele>
        <time>2011-08-17T14:52:54Z</time>
      </trkpt>
      <trkpt lat="44.10995" lon="6.19593">
        <ele>972</ele>
        <time>2011-08-17T14:52:57Z</time>
      </trkpt>
      <trkpt lat="44.10985" lon="6.19599">
        <ele>971</ele>
        <time>2011-08-17T14:53:02Z</time>
      </trkpt>
      <trkpt lat="44.10982" lon="6.19608">
        <ele>971</ele>
        <time>2011-08-17T14:53:06Z</time>
      </trkpt>
      <trkpt lat="44.1098" lon="6.19616">
        <ele>971</ele>
        <time>2011-08-17T14:53:10Z</time>
      </trkpt>
      <trkpt lat="44.10963" lon="6.19631">
        <ele>970</ele>
        <time>2011-08-17T14:53:20Z</time>
      </trkpt>
      <trkpt lat="44.10955" lon="6.19667">
        <ele>971</ele>
        <time>2011-08-17T14:53:31Z</time>
      </trkpt>
      <trkpt lat="44.10957" lon="6.19685">
        <ele>979</ele>
        <time>2011-08-17T14:53:39Z</time>
      </trkpt>
      <trkpt lat="44.10948" lon="6.19689">
        <ele>978</ele>
        <time>2011-08-17T14:53:45Z</time>
      </trkpt>
      <trkpt lat="44.10922" lon="6.19709">
        <ele>977</ele>
        <time>2011-08-17T14:54:00Z</time>
      </trkpt>
      <trkpt lat="44.10903" lon="6.19744">
        <ele>970</ele>
        <time>2011-08-17T14:54:13Z</time>
      </trkpt>
      <trkpt lat="44.10876" lon="6.1976">
        <ele>969</ele>
        <time>2011-08-17T14:54:24Z</time>
      </trkpt>
      <trkpt lat="44.10865" lon="6.19799">
        <ele>968</ele>
        <time>2011-08-17T14:54:34Z</time>
      </trkpt>
      <trkpt lat="44.10866" lon="6.19843">
        <ele>970</ele>
        <time>2011-08-17T14:54:45Z</time>
      </trkpt>
      <trkpt lat="44.10878" lon="6.19905">
        <ele>972</ele>
        <time>2011-08-17T14:54:57Z</time>
      </trkpt>
      <trkpt lat="44.10883" lon="6.19937">
        <ele>974</ele>
        <time>2011-08-17T14:55:05Z</time>
      </trkpt>
      <trkpt lat="44.1087" lon="6.1996">
        <ele>972</ele>
        <time>2011-08-17T14:55:11Z</time>
      </trkpt>
      <trkpt lat="44.1085" lon="6.20005">
        <ele>971</ele>
        <time>2011-08-17T14:55:18Z</time>
      </trkpt>
      <trkpt lat="44.10831" lon="6.2003">
        <ele>964</ele>
        <time>2011-08-17T14:55:25Z</time>
      </trkpt>
      <trkpt lat="44.10831" lon="6.20031">
        <ele>964</ele>
        <time>2011-08-17T14:55:35Z</time>
      </trkpt>
      <trkpt lat="44.10818" lon="6.20043">
        <ele>965</ele>
        <time>2011-08-17T14:55:57Z</time>
      </trkpt>
      <trkpt lat="44.10811" lon="6.2005">
        <ele>965</ele>
        <time>2011-08-17T14:56:08Z</time>
      </trkpt>
      <trkpt lat="44.108" lon="6.20088">
        <ele>972</ele>
        <time>2011-08-17T14:56:20Z</time>
      </trkpt>
      <trkpt lat="44.10798" lon="6.20097">
        <ele>972</ele>
        <time>2011-08-17T14:56:22Z</time>
      </trkpt>
      <trkpt lat="44.10793" lon="6.20113">
        <ele>971</ele>
        <time>2011-08-17T14:56:25Z</time>
      </trkpt>
      <trkpt lat="44.10787" lon="6.20132">
        <ele>971</ele>
        <time>2011-08-17T14:56:28Z</time>
      </trkpt>
      <trkpt lat="44.10777" lon="6.20151">
        <ele>970</ele>
        <time>2011-08-17T14:56:31Z</time>
      </trkpt>
      <trkpt lat="44.10766" lon="6.20172">
        <ele>971</ele>
        <time>2011-08-17T14:56:34Z</time>
      </trkpt>
      <trkpt lat="44.10752" lon="6.20202">
        <ele>973</ele>
        <time>2011-08-17T14:56:39Z</time>
      </trkpt>
      <trkpt lat="44.10741" lon="6.20238">
        <ele>963</ele>
        <time>2011-08-17T14:56:44Z</time>
      </trkpt>
      <trkpt lat="44.10738" lon="6.20287">
        <ele>958</ele>
        <time>2011-08-17T14:56:55Z</time>
      </trkpt>
      <trkpt lat="44.10733" lon="6.20324">
        <ele>958</ele>
        <time>2011-08-17T14:57:05Z</time>
      </trkpt>
      <trkpt lat="44.10722" lon="6.20361">
        <ele>953</ele>
        <time>2011-08-17T14:57:15Z</time>
      </trkpt>
      <trkpt lat="44.10721" lon="6.20359">
        <ele>953</ele>
        <time>2011-08-17T14:57:35Z</time>
      </trkpt>
      <trkpt lat="44.10725" lon="6.20377">
        <ele>953</ele>
        <time>2011-08-17T15:00:17Z</time>
      </trkpt>
      <trkpt lat="44.10728" lon="6.20402">
        <ele>954</ele>
        <time>2011-08-17T15:00:23Z</time>
      </trkpt>
      <trkpt lat="44.10723" lon="6.20428">
        <ele>953</ele>
        <time>2011-08-17T15:00:28Z</time>
      </trkpt>
      <trkpt lat="44.10717" lon="6.20438">
        <ele>952</ele>
        <time>2011-08-17T15:00:30Z</time>
      </trkpt>
      <trkpt lat="44.10705" lon="6.2049">
        <ele>950</ele>
        <time>2011-08-17T15:00:42Z</time>
      </trkpt>
      <trkpt lat="44.10694" lon="6.20543">
        <ele>954</ele>
        <time>2011-08-17T15:00:55Z</time>
      </trkpt>
      <trkpt lat="44.1067" lon="6.206">
        <ele>951</ele>
        <time>2011-08-17T15:01:07Z</time>
      </trkpt>
      <trkpt lat="44.10659" lon="6.20624">
        <ele>941</ele>
        <time>2011-08-17T15:01:17Z</time>
      </trkpt>
      <trkpt lat="44.10655" lon="6.20631">
        <ele>941</ele>
        <time>2011-08-17T15:08:41Z</time>
      </trkpt>
      <trkpt lat="44.1065" lon="6.20644">
        <ele>941</ele>
        <time>2011-08-17T15:08:45Z</time>
      </trkpt>
      <trkpt lat="44.10643" lon="6.2067">
        <ele>941</ele>
        <time>2011-08-17T15:08:50Z</time>
      </trkpt>
      <trkpt lat="44.10621" lon="6.20697">
        <ele>938</ele>
        <time>2011-08-17T15:08:56Z</time>
      </trkpt>
      <trkpt lat="44.10571" lon="6.20729">
        <ele>924</ele>
        <time>2011-08-17T15:09:06Z</time>
      </trkpt>
      <trkpt lat="44.10533" lon="6.20712">
        <ele>920</ele>
        <time>2011-08-17T15:09:17Z</time>
      </trkpt>
      <trkpt lat="44.10528" lon="6.20695">
        <ele>921</ele>
        <time>2011-08-17T15:09:22Z</time>
      </trkpt>
      <trkpt lat="44.10533" lon="6.20675">
        <ele>922</ele>
        <time>2011-08-17T15:09:27Z</time>
      </trkpt>
      <trkpt lat="44.10535" lon="6.20662">
        <ele>923</ele>
        <time>2011-08-17T15:09:30Z</time>
      </trkpt>
      <trkpt lat="44.10538" lon="6.20646">
        <ele>923</ele>
        <time>2011-08-17T15:09:33Z</time>
      </trkpt>
      <trkpt lat="44.10529" lon="6.20644">
        <ele>922</ele>
        <time>2011-08-17T15:09:39Z</time>
      </trkpt>
      <trkpt lat="44.10508" lon="6.207">
        <ele>918</ele>
        <time>2011-08-17T15:09:50Z</time>
      </trkpt>
      <trkpt lat="44.10506" lon="6.20713">
        <ele>917</ele>
        <time>2011-08-17T15:09:52Z</time>
      </trkpt>
      <trkpt lat="44.10515" lon="6.20753">
        <ele>907</ele>
        <time>2011-08-17T15:09:58Z</time>
      </trkpt>
      <trkpt lat="44.1052" lon="6.2076">
        <ele>907</ele>
        <time>2011-08-17T15:10:00Z</time>
      </trkpt>
      <trkpt lat="44.10522" lon="6.2077">
        <ele>907</ele>
        <time>2011-08-17T15:10:12Z</time>
      </trkpt>
      <trkpt lat="44.10518" lon="6.20771">
        <ele>907</ele>
        <time>2011-08-17T15:10:33Z</time>
      </trkpt>
      <trkpt lat="44.10512" lon="6.2077">
        <ele>907</ele>
        <time>2011-08-17T15:10:43Z</time>
      </trkpt>
      <trkpt lat="44.10498" lon="6.20779">
        <ele>893</ele>
        <time>2011-08-17T15:10:52Z</time>
      </trkpt>
      <trkpt lat="44.10492" lon="6.20796">
        <ele>890</ele>
        <time>2011-08-17T15:10:57Z</time>
      </trkpt>
      <trkpt lat="44.10455" lon="6.20838">
        <ele>876</ele>
        <time>2011-08-17T15:11:12Z</time>
      </trkpt>
      <trkpt lat="44.10434" lon="6.20852">
        <ele>872</ele>
        <time>2011-08-17T15:11:19Z</time>
      </trkpt>
      <trkpt lat="44.10415" lon="6.20864">
        <ele>858</ele>
        <time>2011-08-17T15:11:27Z</time>
      </trkpt>
      <trkpt lat="44.10403" lon="6.20882">
        <ele>856</ele>
        <time>2011-08-17T15:11:38Z</time>
      </trkpt>
      <trkpt lat="44.10402" lon="6.20884">
        <ele>856</ele>
        <time>2011-08-17T15:11:56Z</time>
      </trkpt>
      <trkpt lat="44.10401" lon="6.20884">
        <ele>856</ele>
        <time>2011-08-17T15:12:13Z</time>
      </trkpt>
      <trkpt lat="44.10385" lon="6.20903">
        <ele>854</ele>
        <time>2011-08-17T15:12:22Z</time>
      </trkpt>
      <trkpt lat="44.10369" lon="6.20937">
        <ele>846</ele>
        <time>2011-08-17T15:12:32Z</time>
      </trkpt>
      <trkpt lat="44.10367" lon="6.2094">
        <ele>846</ele>
        <time>2011-08-17T15:12:33Z</time>
      </trkpt>
      <trkpt lat="44.10329" lon="6.20963">
        <ele>831</ele>
        <time>2011-08-17T15:12:47Z</time>
      </trkpt>
      <trkpt lat="44.10314" lon="6.20964">
        <ele>830</ele>
        <time>2011-08-17T15:12:52Z</time>
      </trkpt>
      <trkpt lat="44.10306" lon="6.21002">
        <ele>825</ele>
        <time>2011-08-17T15:13:02Z</time>
      </trkpt>
      <trkpt lat="44.10307" lon="6.21025">
        <ele>823</ele>
        <time>2011-08-17T15:13:07Z</time>
      </trkpt>
      <trkpt lat="44.10292" lon="6.21033">
        <ele>820</ele>
        <time>2011-08-17T15:13:13Z</time>
      </trkpt>
      <trkpt lat="44.10286" lon="6.21032">
        <ele>820</ele>
        <time>2011-08-17T15:13:16Z</time>
      </trkpt>
      <trkpt lat="44.10278" lon="6.2105">
        <ele>818</ele>
        <time>2011-08-17T15:13:22Z</time>
      </trkpt>
      <trkpt lat="44.10279" lon="6.21055">
        <ele>818</ele>
        <time>2011-08-17T15:13:24Z</time>
      </trkpt>
      <trkpt lat="44.10273" lon="6.21069">
        <ele>816</ele>
        <time>2011-08-17T15:13:31Z</time>
      </trkpt>
      <trkpt lat="44.10274" lon="6.21071">
        <ele>816</ele>
        <time>2011-08-17T15:13:35Z</time>
      </trkpt>
      <trkpt lat="44.10275" lon="6.21079">
        <ele>815</ele>
        <time>2011-08-17T15:13:39Z</time>
      </trkpt>
      <trkpt lat="44.10282" lon="6.21095">
        <ele>809</ele>
        <time>2011-08-17T15:13:44Z</time>
      </trkpt>
      <trkpt lat="44.10268" lon="6.21119">
        <ele>807</ele>
        <time>2011-08-17T15:13:53Z</time>
      </trkpt>
      <trkpt lat="44.10261" lon="6.21126">
        <ele>807</ele>
        <time>2011-08-17T15:13:57Z</time>
      </trkpt>
      <trkpt lat="44.10244" lon="6.21122">
        <ele>797</ele>
        <time>2011-08-17T15:14:03Z</time>
      </trkpt>
      <trkpt lat="44.10234" lon="6.21125">
        <ele>795</ele>
        <time>2011-08-17T15:14:07Z</time>
      </trkpt>
      <trkpt lat="44.10212" lon="6.21161">
        <ele>792</ele>
        <time>2011-08-17T15:14:18Z</time>
      </trkpt>
    </trkseg>
  </trk>
</gpx>